Data for 08/21/2011

Time Sea-Level Adjusted Pressure Absolute Pressure Temperature Relative Humidity Dew Point Precipitation   
(mb) (inHg) (mb) (inHg) (C) (F) (%) (C) (F) (mm) (in)
00:01 1020 30.12 850 25.1 19.2 66.6 44 6.8 44.2 -86 -3.386
00:02 1020 30.12 850 25.1 19.2 66.6 44 6.7 44.1 -86 -3.386
00:03 1020 30.12 850 25.1 19.1 66.4 44 6.6 43.9 -86 -3.386
00:04 1020 30.12 850 25.1 19.2 66.6 44 6.7 44.1 -86 -3.386
00:05 1021 30.15 850 25.1 19.2 66.5 44 6.7 44 -86 -3.386
00:06 1020 30.12 850 25.1 19.1 66.4 44 6.6 43.9 -86 -3.386
00:07 1021 30.15 850 25.1 19.1 66.5 44 6.7 44.1 -86 -3.386
00:08 1020 30.12 850 25.1 19.1 66.4 44 6.6 43.9 -86 -3.386
00:09 1021 30.15 850 25.1 19.1 66.4 44 6.8 44.2 -86 -3.386
00:10 1021 30.15 850 25.1 19.1 66.4 44 6.7 44 -86 -3.386
00:11 1021 30.15 850 25.1 19.1 66.5 44 6.8 44.2 -86 -3.386
00:12 1021 30.15 850 25.1 19.1 66.3 44 6.7 44.1 -86 -3.386
00:13 1021 30.15 850 25.1 19.2 66.5 44 6.6 43.9 -86 -3.386
00:14 1021 30.15 850 25.1 19.2 66.6 44 6.7 44 -86 -3.386
00:15 1021 30.15 850 25.1 19.1 66.5 44 6.8 44.2 -86 -3.386
00:16 1021 30.15 850 25.1 19.1 66.4 44 6.6 43.9 -86 -3.386
00:17 1021 30.15 850 25.1 19.1 66.3 44 6.8 44.2 -86 -3.386
00:18 1021 30.15 850 25.1 19 66.1 44 6.6 43.9 -86 -3.386
00:19 1021 30.15 850 25.1 19 66.2 44 6.6 43.9 -86 -3.386
00:20 1021 30.15 850 25.1 19.1 66.3 44 6.7 44.1 -86 -3.386
00:21 1021 30.15 850 25.1 19 66.2 44 6.8 44.2 -86 -3.386
00:22 1021 30.15 850 25.1 18.9 66.1 45 6.8 44.3 -86 -3.386
00:23 1021 30.15 850 25.1 18.9 66 44 6.6 43.9 -86 -3.386
00:24 1021 30.15 850 25.1 19 66.1 44 6.6 43.9 -86 -3.386
00:25 1021 30.15 850 25.1 19.1 66.3 44 6.8 44.2 -86 -3.386
00:26 1021 30.15 850 25.1 19 66.2 45 6.8 44.3 -86 -3.386
00:27 1021 30.15 850 25.1 19.1 66.3 44 6.8 44.2 -86 -3.386
00:28 1021 30.15 850 25.1 19.1 66.3 45 6.8 44.3 -86 -3.386
00:29 1021 30.15 850 25.1 19.1 66.3 44 6.7 44.1 -86 -3.386
00:30 1021 30.15 850 25.1 19.1 66.3 44 6.7 44.1 -86 -3.386
00:31 1021 30.15 850 25.1 19 66.2 45 6.8 44.2 -86 -3.386
00:32 1021 30.15 850 25.1 19 66.1 45 6.8 44.3 -86 -3.386
00:33 1021 30.15 850 25.1 18.9 65.9 45 6.9 44.4 -86 -3.386
00:34 1021 30.15 850 25.1 18.7 65.7 45 6.9 44.3 -86 -3.386
00:35 1021 30.15 850 25.1 18.7 65.7 45 6.8 44.3 -86 -3.386
00:36 1021 30.15 850 25.1 18.7 65.6 46 7.1 44.7 -86 -3.386
00:37 1021 30.15 850 25.1 18.4 65.1 47 7.1 44.8 -86 -3.386
00:38 1021 30.15 850 25.1 18.2 64.7 48 7.1 44.7 -86 -3.386
00:39 1021 30.15 850 25.1 18.1 64.5 48 7 44.5 -86 -3.386
00:40 1021 30.15 850 25.1 18.1 64.5 47 6.7 44.1 -86 -3.386
00:41 1021 30.15 850 25.1 18.2 64.8 47 6.9 44.5 -86 -3.386
00:42 1021 30.15 850 25.1 18.1 64.5 48 7.1 44.8 -86 -3.386
00:43 1021 30.15 850 25.1 17.9 64.3 49 7.1 44.8 -86 -3.386
00:44 1021 30.15 850 25.1 17.7 63.9 50 7.2 45 -86 -3.386
00:45 1021 30.15 850 25.1 17.5 63.5 51 7.3 45.1 -86 -3.386
00:46 1021 30.15 850 25.1 17.4 63.3 51 7.2 44.9 -86.1 -3.39
00:47 1021 30.15 850 25.1 17.4 63.2 51 7.1 44.8 -86.1 -3.39
00:48 1021 30.15 850 25.1 17.3 63.1 51 7.3 45.1 -86.1 -3.39
00:49 1021 30.15 850 25.1 17.2 62.9 52 7.2 45 -86.1 -3.39
00:50 1021 30.15 850 25.1 16.9 62.4 52 7.2 45 -86.1 -3.39
00:51 1021 30.15 850 25.1 16.7 62.1 53 7.2 45 -86.1 -3.39
00:52 1021 30.15 850 25.1 16.6 61.9 53 7 44.7 -86.1 -3.39
00:53 1021 30.15 850 25.1 16.7 62 53 7.2 44.9 -86.1 -3.39
00:54 1021 30.15 850 25.1 16.5 61.7 54 7.2 45 -86.1 -3.39
00:55 1021 30.15 850 25.1 16.2 61.2 54 7.1 44.8 -86.1 -3.39
00:56 1021 30.15 850 25.1 16 60.8 55 7.1 44.7 -86.1 -3.39
00:57 1021 30.15 850 25.1 16 60.7 55 6.9 44.5 -86.1 -3.39
00:58 1021 30.15 850 25.1 15.9 60.6 55 7 44.5 -86.1 -3.39
00:59 1021 30.15 850 25.1 15.7 60.2 53 6.2 43.2 -86.1 -3.39
01:00 1021 30.15 850 25.1 15.4 59.7 53 5.8 42.5 -86.2 -3.394
01:01 1021 30.15 850 25.1 15.1 59.3 53 5.7 42.2 -86.2 -3.394
01:02 1021 30.15 850 25.1 14.9 58.9 53 5.6 42.1 -86.2 -3.394
01:03 1021 30.15 850 25.1 14.7 58.5 54 5.7 42.3 -86.2 -3.394
01:04 1021 30.15 850 25.1 14.5 58.1 56 5.8 42.4 -86.3 -3.398
01:05 1021 30.15 850 25.1 14.3 57.7 56 5.8 42.4 -86.3 -3.398
01:06 1021 30.15 850 25.1 14.1 57.4 57 5.7 42.3 -86.3 -3.398
01:07 1021 30.15 850 25.1 14 57.2 56 5.4 41.7 -86.3 -3.398
01:08 1021 30.15 850 25.1 14 57.3 55 5.3 41.6 -86.3 -3.398
01:09 1021 30.15 850 25.1 14 57.3 55 5.3 41.5 -86.3 -3.398
01:10 1021 30.15 850 25.1 13.9 57.1 56 5.4 41.7 -86.3 -3.398
01:11 1021 30.15 850 25.1 13.7 56.7 57 5.3 41.6 -86.4 -3.402
01:12 1021 30.15 850 25.1 13.6 56.5 57 5.4 41.7 -86.4 -3.402
01:13 1021 30.15 850 25.1 13.5 56.3 57 5.3 41.6 -86.4 -3.402
01:14 1021 30.15 850 25.1 13.5 56.3 58 5.5 41.9 -86.5 -3.406
01:15 1021 30.15 850 25.1 13.5 56.3 59 5.7 42.2 -86.5 -3.406
01:16 1021 30.15 850 25.1 13.5 56.3 59 5.8 42.5 -86.5 -3.406
01:17 1021 30.15 850 25.1 13.6 56.5 60 6 42.9 -86.5 -3.406
01:18 1021 30.15 850 25.1 13.8 56.9 59 6 42.8 -86.5 -3.406
01:19 1021 30.15 850 25.1 14 57.2 59 6.1 43 -86.5 -3.406
01:20 1021 30.15 850 25.1 14.1 57.3 59 6.2 43.2 -86.6 -3.409
01:21 1021 30.15 850 25.1 14 57.3 59 6.3 43.3 -86.6 -3.409
01:22 1021 30.15 850 25.1 14 57.2 60 6.4 43.5 -86.6 -3.409
01:23 1021 30.15 850 25.1 13.9 57 61 6.5 43.6 -86.6 -3.409
01:24 1021 30.15 850 25.1 13.7 56.6 61 6.5 43.7 -86.7 -3.413
01:25 1021 30.15 850 25.1 13.5 56.3 62 6.3 43.4 -86.7 -3.413
01:26 1021 30.15 850 25.1 13.4 56 61 6 42.8 -86.7 -3.413
01:27 1021 30.15 850 25.1 13.2 55.8 60 5.6 42 -86.7 -3.413
01:28 1021 30.15 850 25.1 13 55.4 59 5.2 41.4 -86.7 -3.413
01:29 1021 30.15 850 25.1 12.8 55.1 58 4.9 40.8 -86.7 -3.413
01:30 1021 30.15 850 25.1 12.8 55 58 4.8 40.6 -86.8 -3.417
01:31 1021 30.15 850 25.1 12.7 54.8 58 4.6 40.3 -86.8 -3.417
01:32 1021 30.15 850 25.1 12.7 54.8 58 4.6 40.2 -86.8 -3.417
01:33 1021 30.15 850 25.1 12.6 54.7 57 4.5 40.1 -86.8 -3.417
01:34 1021 30.15 850 25.1 12.6 54.8 57 4.3 39.8 -86.9 -3.421
01:35 1021 30.15 850 25.1 12.6 54.7 57 4.4 39.9 -86.9 -3.421
01:36 1021 30.15 850 25.1 12.6 54.7 57 4.4 40 -86.9 -3.421
01:37 1021 30.15 850 25.1 12.5 54.6 58 4.4 40 -86.9 -3.421
01:38 1021 30.15 850 25.1 12.4 54.4 58 4.5 40.1 -86.9 -3.421
01:39 1021 30.15 850 25.1 12.3 54.2 59 4.5 40.1 -86.9 -3.421
01:40 1021 30.15 850 25.1 12.2 54 59 4.4 40 -87 -3.425
01:41 1021 30.15 850 25.1 12.2 53.9 58 4.3 39.8 -87 -3.425
01:42 1021 30.15 850 25.1 12.2 54 58 4.4 39.9 -87 -3.425
01:43 1021 30.15 850 25.1 12.2 53.9 59 4.5 40 -87 -3.425
01:44 1021 30.15 850 25.1 12 53.6 60 4.6 40.3 -87.1 -3.429
01:45 1021 30.15 850 25.1 11.8 53.2 61 4.7 40.4 -87.1 -3.429
01:46 1021 30.15 850 25.1 11.6 52.9 62 4.6 40.2 -87.1 -3.429
01:47 1021 30.15 850 25.1 11.5 52.7 62 4.4 40 -87.1 -3.429
01:48 1021 30.15 850 25.1 11.5 52.6 62 4.4 39.9 -87.1 -3.429
01:49 1021 30.15 850 25.1 11.4 52.5 62 4.4 39.9 -87.2 -3.433
01:50 1021 30.15 850 25.1 11.3 52.4 62 4.4 39.9 -87.2 -3.433
01:51 1021 30.15 850 25.1 11.3 52.4 63 4.5 40.1 -87.2 -3.433
01:52 1021 30.15 850 25.1 11.2 52.2 62 4.3 39.8 -87.2 -3.433
01:53 1021 30.15 850 25.1 11.2 52.2 63 4.4 39.9 -87.2 -3.433
01:54 1021 30.15 850 25.1 11.2 52.2 62 4.3 39.7 -87.2 -3.433
01:55 1021 30.15 850 25.1 11.2 52.2 62 4.4 39.9 -87.3 -3.437
01:56 1021 30.15 850 25.1 11.4 52.5 62 4.4 40 -87.3 -3.437
01:57 1021 30.15 850 25.1 11.6 53 62 4.6 40.3 -87.3 -3.437
01:58 1021 30.15 850 25.1 11.9 53.4 62 4.8 40.6 -87.3 -3.437
01:59 1021 30.15 850 25.1 12.1 53.7 61 4.9 40.8 -87.3 -3.437
02:00 1021 30.15 850 25.1 12.3 54.1 61 5.1 41.1 -87.4 -3.441
02:01 1021 30.15 850 25.1 12.4 54.3 61 5.2 41.4 -87.4 -3.441
02:02 1021 30.15 850 25.1 12.5 54.5 62 5.5 41.8 -87.4 -3.441
02:03 1021 30.15 850 25.1 12.8 55 62 5.7 42.2 -87.4 -3.441
02:04 1021 30.15 850 25.1 13.1 55.5 61 5.7 42.3 -87.4 -3.441
02:05 1021 30.15 850 25.1 13.4 56.1 58 5.4 41.7 -87.4 -3.441
02:06 1021 30.15 850 25.1 13.4 56.2 57 5.1 41.2 -87.4 -3.441
02:07 1021 30.15 850 25.1 13.4 56.1 57 5.1 41.3 -87.4 -3.441
02:08 1021 30.15 850 25.1 13.2 55.8 58 5.1 41.2 -87.4 -3.441
02:09 1021 30.15 850 25.1 13 55.4 58 5 41.1 -87.5 -3.445
02:10 1021 30.15 850 25.1 12.7 54.9 58 4.9 40.8 -87.5 -3.445
02:11 1021 30.15 850 25.1 12.6 54.6 59 4.8 40.6 -87.5 -3.445
02:12 1021 30.15 850 25.1 12.4 54.3 59 4.7 40.5 -87.5 -3.445
02:13 1021 30.15 850 25.1 12.3 54.2 60 4.7 40.5 -87.5 -3.445
02:14 1021 30.15 850 25.1 12.4 54.2 60 4.9 40.8 -87.5 -3.445
02:15 1021 30.15 850 25.1 12.3 54.2 60 4.9 40.9 -87.5 -3.445
02:16 1021 30.15 850 25.1 12.2 53.9 61 4.9 40.8 -87.5 -3.445
02:17 1021 30.15 850 25.1 12 53.6 61 4.8 40.6 -87.6 -3.449
02:18 1021 30.15 850 25.1 11.8 53.2 62 4.8 40.6 -87.6 -3.449
02:19 1021 30.15 850 25.1 11.5 52.8 63 4.7 40.5 -87.6 -3.449
02:20 1021 30.15 850 25.1 11.4 52.4 64 4.9 40.8 -87.6 -3.449
02:21 1021 30.15 850 25.1 11.2 52.1 65 5 40.9 -87.6 -3.449
02:22 1021 30.15 850 25.1 11 51.8 66 5 41 -87.6 -3.449
02:23 1021 30.15 850 25.1 10.8 51.4 67 4.9 40.8 -87.6 -3.449
02:24 1021 30.15 850 25.1 10.7 51.2 66 4.7 40.4 -87.6 -3.449
02:25 1021 30.15 850 25.1 10.6 51 65 4.3 39.8 -87.6 -3.449
02:26 1021 30.15 850 25.1 10.7 51.2 64 4.2 39.6 -87.6 -3.449
02:27 1021 30.15 850 25.1 10.8 51.4 64 4.3 39.8 -87.6 -3.449
02:28 1021 30.15 850 25.1 10.8 51.4 64 4.2 39.6 -87.6 -3.449
02:29 1021 30.15 850 25.1 10.8 51.4 64 4.3 39.7 -87.7 -3.453
02:30 1021 30.15 850 25.1 10.8 51.5 63 4.1 39.5 -87.7 -3.453
02:31 1021 30.15 850 25.1 10.8 51.4 63 4 39.1 -87.7 -3.453
02:32 1021 30.15 850 25.1 10.8 51.4 63 4 39.2 -87.7 -3.453
02:33 1021 30.15 850 25.1 10.8 51.4 63 4.1 39.4 -87.7 -3.453
02:34 1021 30.15 850 25.1 10.8 51.5 62 4 39.1 -87.7 -3.453
02:35 1021 30.15 850 25.1 10.9 51.6 62 3.8 38.9 -87.7 -3.453
02:36 1021 30.15 850 25.1 11 51.8 61 3.8 38.9 -87.8 -3.457
02:37 1021 30.15 850 25.1 11.1 52 61 3.9 39 -87.8 -3.457
02:38 1021 30.15 850 25.1 11.1 52.1 61 4 39.3 -87.8 -3.457
02:39 1021 30.15 850 25.1 11.1 52 62 4.1 39.3 -87.8 -3.457
02:40 1021 30.15 850 25.1 11.1 51.9 62 4.1 39.4 -87.8 -3.457
02:41 1021 30.15 850 25.1 11 51.8 62 4.1 39.4 -87.8 -3.457
02:42 1021 30.15 850 25.1 11 51.7 62 4.1 39.4 -87.8 -3.457
02:43 1021 30.15 850 25.1 10.9 51.6 63 4.1 39.5 -87.8 -3.457
02:44 1021 30.15 850 25.1 10.9 51.6 63 4.2 39.5 -87.8 -3.457
02:45 1021 30.15 850 25.1 10.8 51.4 63 4.1 39.4 -87.8 -3.457
02:46 1021 30.15 850 25.1 10.7 51.3 64 4.2 39.5 -87.9 -3.461
02:47 1021 30.15 850 25.1 10.6 51.2 64 4.2 39.6 -87.9 -3.461
02:48 1021 30.15 850 25.1 10.6 51 65 4.2 39.6 -87.9 -3.461
02:49 1021 30.15 850 25.1 10.5 50.9 65 4.3 39.7 -87.9 -3.461
02:50 1021 30.15 850 25.1 10.4 50.7 66 4.3 39.7 -87.9 -3.461
02:51 1021 30.15 850 25.1 10.3 50.5 66 4.2 39.6 -87.9 -3.461
02:52 1021 30.15 850 25.1 10.1 50.2 66 4.1 39.3 -87.9 -3.461
02:53 1021 30.15 850 25.1 10.2 50.3 65 4 39.3 -87.9 -3.461
02:54 1021 30.15 850 25.1 10.2 50.4 65 3.9 39 -87.9 -3.461
02:55 1021 30.15 850 25.1 10.4 50.8 63 3.8 38.9 -88 -3.465
02:56 1021 30.15 850 25.1 10.6 51.1 63 3.8 38.8 -88 -3.465
02:57 1021 30.15 850 25.1 10.8 51.4 62 3.8 38.8 -88 -3.465
02:58 1021 30.15 850 25.1 11 51.7 62 3.9 39.1 -88 -3.465
02:59 1021 30.15 850 25.1 11 51.8 61 3.9 39 -88 -3.465
03:00 1021 30.15 850 25.1 11.1 51.9 61 3.9 39.1 -88 -3.465
03:01 1021 30.15 850 25.1 11.1 52 62 4.1 39.3 -88 -3.465
03:02 1021 30.15 850 25.1 11 51.9 62 4.1 39.4 -88 -3.465
03:03 1021 30.15 850 25.1 11 51.7 63 4.2 39.6 -88 -3.465
03:04 1021 30.15 850 25.1 10.9 51.6 63 4.2 39.6 -88.1 -3.469
03:05 1021 30.15 850 25.1 10.8 51.5 63 4.1 39.4 -88.1 -3.469
03:06 1021 30.15 850 25.1 10.8 51.4 63 4 39.3 -88.1 -3.469
03:07 1021 30.15 850 25.1 10.9 51.5 63 4.1 39.4 -88.1 -3.469
03:08 1021 30.15 850 25.1 10.9 51.6 62 4 39.3 -88.1 -3.469
03:09 1021 30.15 850 25.1 10.9 51.6 63 4.1 39.4 -88.1 -3.469
03:10 1021 30.15 850 25.1 10.9 51.5 63 4.2 39.5 -88.1 -3.469
03:11 1021 30.15 850 25.1 10.8 51.5 63 4.2 39.6 -88.1 -3.469
03:12 1021 30.15 850 25.1 10.7 51.2 64 4.3 39.7 -88.1 -3.469
03:13 1021 30.15 850 25.1 10.5 50.9 64 4.1 39.3 -88.1 -3.469
03:14 1021 30.15 850 25.1 10.4 50.7 65 4.1 39.4 -88.1 -3.469
03:15 1021 30.15 850 25.1 10.4 50.7 64 3.9 39 -88.1 -3.469
03:16 1021 30.15 850 25.1 10.5 50.8 63 3.9 39 -88.2 -3.472
03:17 1021 30.15 850 25.1 10.6 51 63 4 39.1 -88.2 -3.472
03:18 1021 30.15 850 25.1 10.7 51.2 63 4 39.3 -88.2 -3.472
03:19 1021 30.15 850 25.1 10.7 51.2 63 4 39.3 -88.2 -3.472
03:20 1021 30.15 850 25.1 10.8 51.4 63 4.1 39.3 -88.2 -3.472
03:21 1021 30.15 850 25.1 10.8 51.4 62 3.9 39 -88.2 -3.472
03:22 1021 30.15 851 25.13 10.8 51.5 62 3.9 39 -88.2 -3.472
03:23 1021 30.15 851 25.13 10.9 51.6 62 3.8 38.9 -88.2 -3.472
03:24 1021 30.15 851 25.13 11 51.8 61 3.8 38.8 -88.2 -3.472
03:25 1021 30.15 851 25.13 11 51.8 61 3.8 38.8 -88.2 -3.472
03:26 1021 30.15 851 25.13 11 51.8 61 3.8 38.9 -88.2 -3.472
03:27 1021 30.15 851 25.13 11 51.8 61 3.8 38.8 -88.3 -3.476
03:28 1021 30.15 851 25.13 11.1 51.9 61 3.9 39 -88.3 -3.476
03:29 1021 30.15 851 25.13 11.1 51.9 60 3.7 38.7 -88.3 -3.476
03:30 1021 30.15 851 25.13 11.1 52.1 61 3.8 38.9 -88.3 -3.476
03:31 1021 30.15 851 25.13 11.2 52.1 61 3.9 39.1 -88.3 -3.476
03:32 1021 30.15 851 25.13 11.1 52 61 4 39.1 -88.3 -3.476
03:33 1021 30.15 851 25.13 11 51.9 61 3.9 38.9 -88.3 -3.476
03:34 1021 30.15 851 25.13 11 51.9 60 3.7 38.6 -88.3 -3.476
03:35 1021 30.15 851 25.13 11.2 52.1 60 3.8 38.8 -88.3 -3.476
03:36 1021 30.15 851 25.13 11.2 52.2 60 3.9 39 -88.3 -3.476
03:37 1021 30.15 851 25.13 11.2 52.1 60 3.8 38.8 -88.3 -3.476
03:38 1021 30.15 851 25.13 11.2 52.1 60 3.8 38.9 -88.3 -3.476
03:39 1021 30.15 851 25.13 11.2 52.2 60 3.9 39 -88.3 -3.476
03:40 1021 30.15 851 25.13 11.2 52.2 60 3.7 38.7 -88.3 -3.476
03:41 1021 30.15 851 25.13 11.3 52.4 59 3.7 38.7 -88.3 -3.476
03:42 1021 30.15 851 25.13 11.4 52.5 60 3.9 39 -88.3 -3.476
03:43 1021 30.15 851 25.13 11.3 52.3 60 3.9 39 -88.3 -3.476
03:44 1021 30.15 851 25.13 11.3 52.3 60 3.9 39 -88.3 -3.476
03:45 1021 30.15 851 25.13 11.3 52.3 59 3.7 38.7 -88.3 -3.476
03:46 1021 30.15 851 25.13 11.4 52.4 59 3.7 38.7 -88.3 -3.476
03:47 1021 30.15 851 25.13 11.4 52.5 60 3.9 39 -88.3 -3.476
03:48 1021 30.15 851 25.13 11.3 52.4 60 4 39.2 -88.3 -3.476
03:49 1021 30.15 851 25.13 11.3 52.3 61 4 39.2 -88.3 -3.476
03:50 1021 30.15 851 25.13 11.2 52.1 61 3.9 39 -88.3 -3.476
03:51 1021 30.15 851 25.13 11.1 52 60 3.8 38.8 -88.4 -3.48
03:52 1021 30.15 851 25.13 11.2 52.2 61 3.9 39.1 -88.4 -3.48
03:53 1021 30.15 851 25.13 11.2 52.1 61 4 39.2 -88.4 -3.48
03:54 1021 30.15 851 25.13 11.1 52 61 3.9 39.1 -88.4 -3.48
03:55 1021 30.15 851 25.13 11.1 52 60 3.6 38.5 -88.4 -3.48
03:56 1021 30.15 851 25.13 11.4 52.4 59 3.7 38.6 -88.4 -3.48
03:57 1021 30.15 851 25.13 11.5 52.6 59 3.8 38.9 -88.4 -3.48
03:58 1021 30.15 851 25.13 11.4 52.6 59 3.8 38.9 -88.4 -3.48
03:59 1021 30.15 851 25.13 11.4 52.5 60 3.9 39 -88.4 -3.48
04:00 1021 30.15 851 25.13 11.3 52.4 60 3.9 39 -88.4 -3.48
04:01 1021 30.15 851 25.13 11.2 52.2 60 3.9 39 -88.4 -3.48
04:02 1021 30.15 851 25.13 11.2 52.2 60 3.9 39 -88.4 -3.48
04:03 1021 30.15 851 25.13 11.2 52.1 60 3.7 38.6 -88.4 -3.48
04:04 1021 30.15 851 25.13 11.2 52.2 60 3.8 38.8 -88.4 -3.48
04:05 1021 30.15 851 25.13 11.3 52.3 60 3.8 38.9 -88.4 -3.48
04:06 1021 30.15 851 25.13 11.2 52.2 60 3.8 38.9 -88.4 -3.48
04:07 1021 30.15 851 25.13 11.2 52.2 60 3.9 38.9 -88.4 -3.48
04:08 1021 30.15 851 25.13 11.2 52.2 60 3.9 39 -88.4 -3.48
04:09 1021 30.15 851 25.13 11.2 52.2 61 4 39.2 -88.4 -3.48
04:10 1021 30.15 851 25.13 11.2 52.2 61 4 39.2 -88.4 -3.48
04:11 1021 30.15 851 25.13 11.2 52.2 62 4.1 39.5 -88.4 -3.48
04:12 1021 30.15 851 25.13 11.2 52.1 62 4.2 39.5 -88.4 -3.48
04:13 1021 30.15 851 25.13 11.2 52.1 62 4.3 39.7 -88.4 -3.48
04:14 1021 30.15 851 25.13 11.2 52.2 62 4.2 39.6 -88.4 -3.48
04:15 1021 30.15 851 25.13 11.3 52.3 62 4.3 39.8 -88.4 -3.48
04:16 1021 30.15 851 25.13 11.1 52 63 4.4 40 -88.4 -3.48
04:17 1021 30.15 851 25.13 11 51.7 64 4.4 39.9 -88.4 -3.48
04:18 1021 30.15 851 25.13 10.9 51.5 64 4.3 39.8 -88.4 -3.48
04:19 1021 30.15 851 25.13 10.9 51.5 65 4.5 40.1 -88.4 -3.48
04:20 1021 30.15 851 25.13 10.7 51.2 65 4.4 40 -88.4 -3.48
04:21 1021 30.15 851 25.13 10.5 50.8 66 4.4 39.9 -88.4 -3.48
04:22 1021 30.15 851 25.13 10.3 50.5 67 4.4 39.9 -88.5 -3.484
04:23 1021 30.15 851 25.13 10.1 50.1 67 4.2 39.6 -88.5 -3.484
04:24 1021 30.15 851 25.13 9.9 49.8 67 4.2 39.5 -88.5 -3.484
04:25 1021 30.15 851 25.13 9.8 49.6 67 4.1 39.3 -88.5 -3.484
04:26 1021 30.15 851 25.13 9.7 49.5 67 4 39.2 -88.5 -3.484
04:27 1021 30.15 851 25.13 9.7 49.5 67 3.9 39.1 -88.5 -3.484
04:28 1021 30.15 851 25.13 9.8 49.6 67 4 39.1 -88.5 -3.484
04:29 1021 30.15 851 25.13 9.9 49.8 66 4 39.1 -88.5 -3.484
04:30 1021 30.15 851 25.13 9.9 49.9 66 4 39.2 -88.5 -3.484
04:31 1021 30.15 851 25.13 10 50 66 4 39.2 -88.5 -3.484
04:32 1021 30.15 851 25.13 10.1 50.2 66 4.1 39.5 -88.5 -3.484
04:33 1021 30.15 851 25.13 10.1 50.2 67 4.2 39.6 -88.5 -3.484
04:34 1021 30.15 851 25.13 10.1 50.1 67 4.3 39.7 -88.5 -3.484
04:35 1021 30.15 851 25.13 10 50.1 68 4.4 39.8 -88.5 -3.484
04:36 1021 30.15 851 25.13 10.1 50.2 68 4.5 40 -88.5 -3.484
04:37 1021 30.15 851 25.13 10.4 50.7 66 4.5 40 -88.6 -3.488
04:38 1021 30.15 851 25.13 10.7 51.2 66 4.6 40.3 -88.6 -3.488
04:39 1021 30.15 851 25.13 10.8 51.4 66 4.8 40.6 -88.6 -3.488
04:40 1021 30.15 851 25.13 10.8 51.4 66 4.8 40.6 -88.6 -3.488
04:41 1021 30.15 851 25.13 10.9 51.5 65 4.6 40.3 -88.6 -3.488
04:42 1021 30.15 851 25.13 11.1 52 64 4.7 40.4 -88.6 -3.488
04:43 1021 30.15 851 25.13 11.2 52.2 64 4.7 40.5 -88.6 -3.488
04:44 1021 30.15 851 25.13 11.2 52.1 63 4.5 40.2 -88.6 -3.488
04:45 1021 30.15 851 25.13 11.2 52.1 63 4.4 40 -88.6 -3.488
04:46 1021 30.15 851 25.13 11.1 51.9 63 4.4 39.8 -88.6 -3.488
04:47 1021 30.15 851 25.13 11 51.8 64 4.4 39.9 -88.6 -3.488
04:48 1021 30.15 851 25.13 10.9 51.6 64 4.4 40 -88.6 -3.488
04:49 1021 30.15 851 25.13 10.7 51.3 64 4.3 39.8 -88.6 -3.488
04:50 1021 30.15 851 25.13 10.7 51.2 64 4.2 39.6 -88.6 -3.488
04:51 1021 30.15 851 25.13 10.5 51 64 4.1 39.4 -88.6 -3.488
04:52 1021 30.15 851 25.13 10.4 50.7 65 4.1 39.4 -88.6 -3.488
04:53 1021 30.15 851 25.13 10.3 50.5 65 4.1 39.4 -88.6 -3.488
04:54 1021 30.15 851 25.13 10.1 50.1 66 4 39.2 -88.6 -3.488
04:55 1021 30.15 851 25.13 10 49.9 66 4 39.3 -88.6 -3.488
04:56 1021 30.15 851 25.13 9.9 49.7 67 4 39.2 -88.6 -3.488
04:57 1021 30.15 851 25.13 9.8 49.6 67 3.9 39 -88.6 -3.488
04:58 1021 30.15 851 25.13 9.7 49.5 67 3.9 39 -88.7 -3.492
04:59 1021 30.15 851 25.13 9.7 49.5 67 3.9 39 -88.7 -3.492
05:00 1021 30.15 851 25.13 9.6 49.4 68 4 39.1 -88.7 -3.492
05:01 1021 30.15 851 25.13 9.6 49.2 68 3.9 39.1 -88.7 -3.492
05:02 1021 30.15 851 25.13 9.5 49.1 68 3.9 39.1 -88.7 -3.492
05:03 1021 30.15 851 25.13 9.5 49 68 4 39.2 -88.7 -3.492
05:04 1021 30.15 851 25.13 9.4 49 69 4 39.2 -88.7 -3.492
05:05 1021 30.15 851 25.13 9.4 48.9 69 4 39.3 -88.7 -3.492
05:06 1021 30.15 851 25.13 9.5 49.1 69 4.1 39.3 -88.7 -3.492
05:07 1021 30.15 851 25.13 9.6 49.4 69 4.2 39.5 -88.7 -3.492
05:08 1021 30.15 851 25.13 9.8 49.7 68 4.3 39.7 -88.7 -3.492
05:09 1021 30.15 851 25.13 10 50 68 4.3 39.8 -88.7 -3.492
05:10 1021 30.15 851 25.13 10.2 50.3 67 4.3 39.8 -88.7 -3.492
05:11 1021 30.15 851 25.13 10.6 51 65 4.4 39.8 -88.7 -3.492
05:12 1021 30.15 851 25.13 11 51.8 64 4.5 40 -88.7 -3.492
05:13 1021 30.15 851 25.13 11.3 52.3 63 4.6 40.3 -88.7 -3.492
05:14 1021 30.15 851 25.13 11.3 52.4 63 4.7 40.4 -88.7 -3.492
05:15 1021 30.15 851 25.13 11.3 52.3 64 4.8 40.7 -88.7 -3.492
05:16 1021 30.15 851 25.13 11.1 52 65 4.8 40.6 -88.7 -3.492
05:17 1021 30.15 851 25.13 11.1 51.9 64 4.5 40.1 -88.8 -3.496
05:18 1021 30.15 851 25.13 11.1 51.9 63 4.4 40 -88.8 -3.496
05:19 1021 30.15 851 25.13 10.9 51.7 63 4.3 39.7 -88.7 -3.492
05:20 1021 30.15 851 25.13 10.8 51.4 63 4 39.3 -88.7 -3.492
05:21 1021 30.15 851 25.13 10.8 51.4 62 3.9 39 -88.8 -3.496
05:22 1021 30.15 851 25.13 10.7 51.3 62 3.7 38.7 -88.8 -3.496
05:23 1021 30.15 851 25.13 10.7 51.3 62 3.7 38.7 -88.8 -3.496
05:24 1021 30.15 851 25.13 10.7 51.3 62 3.7 38.7 -88.8 -3.496
05:25 1021 30.15 851 25.13 10.7 51.2 62 3.8 38.8 -88.8 -3.496
05:26 1021 30.15 851 25.13 10.6 51.1 62 3.8 38.8 -88.8 -3.496
05:27 1021 30.15 851 25.13 10.6 51 63 3.8 38.8 -88.8 -3.496
05:28 1021 30.15 851 25.13 10.5 50.9 63 3.8 38.9 -88.8 -3.496
05:29 1021 30.15 851 25.13 10.5 50.8 63 3.8 38.8 -88.8 -3.496
05:30 1021 30.15 851 25.13 10.4 50.8 63 3.7 38.7 -88.8 -3.496
05:31 1021 30.15 851 25.13 10.4 50.7 63 3.7 38.7 -88.8 -3.496
05:32 1021 30.15 851 25.13 10.4 50.6 63 3.7 38.6 -88.8 -3.496
05:33 1021 30.15 851 25.13 10.3 50.6 63 3.7 38.7 -88.8 -3.496
05:34 1021 30.15 851 25.13 10.4 50.7 63 3.6 38.5 -88.8 -3.496
05:35 1021 30.15 851 25.13 10.4 50.7 63 3.7 38.7 -88.8 -3.496
05:36 1021 30.15 851 25.13 10.4 50.6 63 3.7 38.6 -88.8 -3.496
05:37 1021 30.15 851 25.13 10.3 50.6 64 3.8 38.8 -88.8 -3.496
05:38 1021 30.15 851 25.13 10.3 50.5 64 3.7 38.7 -88.8 -3.496
05:39 1021 30.15 851 25.13 10.2 50.4 63 3.6 38.5 -88.8 -3.496
05:40 1021 30.15 851 25.13 10.2 50.4 64 3.8 38.8 -88.8 -3.496
05:41 1021 30.15 851 25.13 10.1 50.2 64 3.6 38.5 -88.8 -3.496
05:42 1021 30.15 851 25.13 10 50.1 64 3.7 38.6 -88.8 -3.496
05:43 1021 30.15 851 25.13 9.9 49.9 65 3.6 38.6 -88.8 -3.496
05:44 1021 30.15 851 25.13 9.9 49.7 65 3.6 38.4 -88.8 -3.496
05:45 1021 30.15 851 25.13 9.9 49.8 64 3.5 38.4 -88.8 -3.496
05:46 1021 30.15 851 25.13 9.9 49.9 64 3.5 38.4 -88.8 -3.496
05:47 1021 30.15 851 25.13 10 49.9 64 3.6 38.5 -88.8 -3.496
05:48 1021 30.15 851 25.13 10 49.9 65 3.7 38.7 -88.8 -3.496
05:49 1021 30.15 851 25.13 10 49.9 64 3.5 38.4 -88.8 -3.496
05:50 1021 30.15 851 25.13 10 50 64 3.6 38.4 -88.8 -3.496
05:51 1021 30.15 851 25.13 10 50 65 3.7 38.6 -88.8 -3.496
05:52 1022 30.18 851 25.13 9.9 49.8 65 3.7 38.6 -88.9 -3.5
05:53 1022 30.18 851 25.13 9.8 49.6 65 3.6 38.5 -88.9 -3.5
05:54 1021 30.15 851 25.13 9.7 49.4 66 3.7 38.6 -88.9 -3.5
05:55 1021 30.15 851 25.13 9.5 49.2 67 3.6 38.6 -88.9 -3.5
05:56 1021 30.15 851 25.13 9.4 49 67 3.6 38.4 -88.9 -3.5
05:57 1021 30.15 851 25.13 9.4 49 68 3.8 38.8 -88.9 -3.5
05:58 1022 30.18 851 25.13 9.2 48.5 69 3.8 38.8 -88.9 -3.5
05:59 1022 30.18 851 25.13 8.8 47.9 70 3.8 38.8 -88.9 -3.5
06:00 1022 30.18 851 25.13 8.6 47.4 71 3.6 38.5 -88.9 -3.5
06:01 1022 30.18 851 25.13 8.4 47.1 72 3.6 38.5 -88.9 -3.5
06:02 1022 30.18 851 25.13 8.2 46.8 72 3.6 38.5 -88.9 -3.5
06:03 1021 30.15 851 25.13 8.1 46.7 73 3.6 38.5 -88.9 -3.5
06:04 1022 30.18 851 25.13 7.9 46.3 74 3.6 38.5 -88.9 -3.5
06:05 1022 30.18 851 25.13 7.7 45.9 75 3.6 38.4 -88.9 -3.5
06:06 1022 30.18 851 25.13 7.7 45.9 75 3.5 38.4 -88.9 -3.5
06:07 1022 30.18 851 25.13 7.8 46 74 3.5 38.3 -88.9 -3.5
06:08 1022 30.18 851 25.13 7.8 46 74 3.5 38.3 -88.9 -3.5
06:09 1022 30.18 851 25.13 7.8 46.1 74 3.5 38.3 -88.9 -3.5
06:10 1022 30.18 851 25.13 7.8 46.1 74 3.5 38.4 -88.9 -3.5
06:11 1022 30.18 851 25.13 7.8 46.1 74 3.6 38.5 -88.9 -3.5
06:12 1022 30.18 851 25.13 7.7 45.8 75 3.5 38.4 -88.9 -3.5
06:13 1022 30.18 851 25.13 7.7 45.8 75 3.6 38.4 -88.9 -3.5
06:14 1022 30.18 851 25.13 7.7 45.8 75 3.6 38.4 -88.9 -3.5
06:15 1022 30.18 851 25.13 7.7 45.8 75 3.5 38.4 -88.9 -3.5
06:16 1022 30.18 851 25.13 7.7 45.9 75 3.6 38.5 -88.9 -3.5
06:17 1022 30.18 851 25.13 7.7 45.9 75 3.6 38.5 -88.8 -3.496
06:18 1022 30.18 851 25.13 7.8 46 75 3.7 38.7 -88.8 -3.496
06:19 1022 30.18 851 25.13 7.9 46.2 75 3.7 38.6 -88.8 -3.496
06:20 1022 30.18 851 25.13 8 46.5 74 3.8 38.8 -88.8 -3.496
06:21 1022 30.18 851 25.13 8.1 46.6 74 3.7 38.7 -88.8 -3.496
06:22 1022 30.18 851 25.13 8.3 47 72 3.6 38.5 -88.8 -3.496
06:23 1022 30.18 851 25.13 8.6 47.5 71 3.8 38.8 -88.8 -3.496
06:24 1022 30.18 851 25.13 8.8 47.8 71 3.9 39 -88.8 -3.496
06:25 1022 30.18 851 25.13 8.7 47.7 71 3.8 38.9 -88.8 -3.496
06:26 1022 30.18 851 25.13 8.7 47.7 72 3.9 39 -88.8 -3.496
06:27 1022 30.18 851 25.13 8.7 47.7 72 3.9 39 -88.8 -3.496
06:28 1022 30.18 851 25.13 8.7 47.7 72 4 39.2 -88.8 -3.496
06:29 1022 30.18 851 25.13 8.7 47.7 72 4 39.2 -88.8 -3.496
06:30 1022 30.18 851 25.13 8.7 47.6 72 3.9 39 -88.8 -3.496
06:31 1022 30.18 851 25.13 8.7 47.6 72 4 39.2 -88.8 -3.496
06:32 1022 30.18 851 25.13 8.6 47.5 73 4.1 39.3 -88.9 -3.5
06:33 1022 30.18 851 25.13 8.5 47.3 73 4 39.1 -88.9 -3.5
06:34 1022 30.18 851 25.13 8.4 47.2 74 4 39.2 -88.9 -3.5
06:35 1022 30.18 851 25.13 8.3 47 74 3.9 39.1 -88.9 -3.5
06:36 1022 30.18 851 25.13 8.3 47 74 3.9 39.1 -88.9 -3.5
06:37 1022 30.18 851 25.13 8.3 46.9 74 3.9 39 -88.9 -3.5
06:38 1022 30.18 851 25.13 8.2 46.8 74 3.8 38.8 -88.9 -3.5
06:39 1022 30.18 851 25.13 8.3 46.9 73 3.8 38.9 -88.9 -3.5
06:40 1022 30.18 851 25.13 8.3 46.9 74 3.8 38.9 -88.9 -3.5
06:41 1022 30.18 851 25.13 8.3 46.9 74 3.8 38.9 -88.9 -3.5
06:42 1022 30.18 851 25.13 8.3 46.9 74 3.8 38.9 -88.9 -3.5
06:43 1022 30.18 851 25.13 8.2 46.8 74 3.8 38.9 -88.9 -3.5
06:44 1022 30.18 851 25.13 8.2 46.7 74 3.9 39 -88.9 -3.5
06:45 1022 30.18 851 25.13 8.3 46.9 74 3.9 39 -88.9 -3.5
06:46 1022 30.18 851 25.13 8.3 46.9 74 3.9 39 -88.9 -3.5
06:47 1022 30.18 851 25.13 8.4 47 73 3.9 39 -88.9 -3.5
06:48 1022 30.18 851 25.13 8.4 47.1 73 3.9 39.1 -88.9 -3.5
06:49 1022 30.18 851 25.13 8.4 47.2 73 3.9 39 -88.9 -3.5
06:50 1022 30.18 851 25.13 8.6 47.4 73 4 39.1 -88.9 -3.5
06:51 1022 30.18 851 25.13 8.5 47.4 73 4 39.2 -88.9 -3.5
06:52 1022 30.18 851 25.13 8.5 47.2 73 3.9 39.1 -89 -3.504
06:53 1022 30.18 851 25.13 8.5 47.2 73 3.9 39.1 -89 -3.504
06:54 1022 30.18 851 25.13 8.5 47.4 73 3.9 39.1 -89 -3.504
06:55 1022 30.18 851 25.13 8.6 47.5 73 4.1 39.4 -89 -3.504
06:56 1022 30.18 851 25.13 8.6 47.4 73 4 39.2 -89 -3.504
06:57 1022 30.18 851 25.13 8.7 47.6 73 4 39.2 -89 -3.504
06:58 1022 30.18 851 25.13 8.7 47.7 72 4 39.2 -89 -3.504
06:59 1022 30.18 851 25.13 8.9 48 71 3.9 39.1 -89 -3.504
07:00 1022 30.18 851 25.13 9.1 48.4 70 4.1 39.3 -89 -3.504
07:01 1022 30.18 851 25.13 9.3 48.7 70 4.1 39.4 -89 -3.504
07:02 1022 30.18 851 25.13 9.3 48.8 70 4.2 39.5 -89.1 -3.508
07:03 1022 30.18 851 25.13 9.4 49 70 4.2 39.5 -89.1 -3.508
07:04 1022 30.18 851 25.13 9.6 49.2 69 4.2 39.6 -89.1 -3.508
07:05 1022 30.18 851 25.13 9.8 49.6 68 4.1 39.4 -89.1 -3.508
07:06 1022 30.18 851 25.13 10 49.9 67 4.2 39.5 -89.1 -3.508
07:07 1022 30.18 851 25.13 10.2 50.4 66 4.2 39.5 -89.1 -3.508
07:08 1022 30.18 851 25.13 10.5 50.9 64 4.1 39.4 -89.1 -3.508
07:09 1022 30.18 851 25.13 10.8 51.5 63 4.1 39.3 -89.1 -3.508
07:10 1022 30.18 851 25.13 11.1 52 63 4.4 40 -89.1 -3.508
07:11 1022 30.18 851 25.13 11.2 52.2 63 4.5 40.2 -89.1 -3.508
07:12 1022 30.18 851 25.13 11.2 52.2 63 4.5 40.1 -89.1 -3.508
07:13 1022 30.18 851 25.13 11.2 52.2 63 4.5 40.1 -89.1 -3.508
07:14 1022 30.18 851 25.13 11.2 52.2 64 4.6 40.3 -89.1 -3.508
07:15 1022 30.18 851 25.13 11.2 52.1 65 4.8 40.7 -89.1 -3.508
07:16 1022 30.18 851 25.13 11.2 52.1 65 4.8 40.7 -89.1 -3.508
07:17 1022 30.18 851 25.13 11.1 52 65 4.8 40.7 -89.1 -3.508
07:18 1022 30.18 851 25.13 11 51.9 65 4.8 40.7 -89.1 -3.508
07:19 1022 30.18 851 25.13 11 51.7 66 4.9 40.8 -89.1 -3.508
07:20 1022 30.18 851 25.13 11 51.7 66 4.9 40.9 -89.1 -3.508
07:21 1022 30.18 851 25.13 10.9 51.7 66 4.9 40.9 -89.1 -3.508
07:22 1022 30.18 851 25.13 10.9 51.7 67 5 41 -89.1 -3.508
07:23 1022 30.18 851 25.13 11 51.8 67 5.1 41.1 -89.1 -3.508
07:24 1022 30.18 851 25.13 11 51.8 66 5 41 -89.1 -3.508
07:25 1022 30.18 851 25.13 11.1 52 66 5.1 41.1 -89.1 -3.508
07:26 1022 30.18 851 25.13 11.2 52.2 66 5.1 41.1 -89.1 -3.508
07:27 1022 30.18 851 25.13 11.4 52.4 65 5.1 41.1 -89.1 -3.508
07:28 1022 30.18 851 25.13 11.5 52.6 65 5.3 41.5 -89.1 -3.508
07:29 1022 30.18 851 25.13 11.6 52.9 66 5.4 41.8 -89.1 -3.508
07:30 1022 30.18 851 25.13 11.7 53.1 65 5.4 41.7 -89.1 -3.508
07:31 1022 30.18 851 25.13 11.9 53.3 63 5.2 41.4 -89 -3.504
07:32 1022 30.18 851 25.13 12 53.6 64 5.4 41.8 -89 -3.504
07:33 1022 30.18 851 25.13 12.2 53.9 65 5.9 42.5 -89 -3.504
07:34 1022 30.18 851 25.13 12.3 54.1 66 6.1 42.9 -89 -3.504
07:35 1022 30.18 851 25.13 12.3 54.2 64 5.8 42.4 -89 -3.504
07:36 1022 30.18 851 25.13 12.4 54.4 65 6 42.8 -89 -3.504
07:37 1022 30.18 851 25.13 12.6 54.7 62 5.6 42 -89 -3.504
07:38 1022 30.18 851 25.13 12.8 55 62 5.7 42.3 -89 -3.504
07:39 1022 30.18 851 25.13 12.9 55.1 61 5.7 42.2 -89 -3.504
07:40 1022 30.18 851 25.13 13 55.4 62 5.9 42.5 -89 -3.504
07:41 1022 30.18 851 25.13 13.1 55.7 60 5.5 41.9 -89 -3.504
07:42 1022 30.18 851 25.13 13.3 55.9 61 6.1 42.9 -89 -3.504
07:43 1022 30.18 851 25.13 13.3 56 60 5.8 42.4 -89 -3.504
07:44 1022 30.18 851 25.13 13.4 56.2 59 5.7 42.3 -88.9 -3.5
07:45 1022 30.18 851 25.13 13.5 56.3 60 6 42.8 -88.9 -3.5
07:46 1022 30.18 851 25.13 13.6 56.4 61 6.2 43.2 -88.9 -3.5
07:47 1022 30.18 852 25.16 13.7 56.6 62 6.7 44.1 -88.9 -3.5
07:48 1022 30.18 852 25.16 13.8 56.8 64 7.1 44.8 -88.9 -3.5
07:49 1022 30.18 852 25.16 13.9 57 64 7.2 44.9 -88.9 -3.5
07:50 1022 30.18 852 25.16 14 57.2 62 6.9 44.5 -88.9 -3.5
07:51 1022 30.18 852 25.16 14.1 57.4 60 6.6 43.8 -88.8 -3.496
07:52 1022 30.18 852 25.16 14.1 57.3 62 7 44.5 -88.8 -3.496
07:53 1022 30.18 852 25.16 14 57.2 62 6.9 44.4 -88.8 -3.496
07:54 1022 30.18 852 25.16 14 57.3 63 7.1 44.7 -88.8 -3.496
07:55 1022 30.18 852 25.16 14.1 57.3 63 7.1 44.8 -88.8 -3.496
07:56 1022 30.18 852 25.16 14.1 57.4 63 7.2 45 -88.8 -3.496
07:57 1022 30.18 852 25.16 14.2 57.5 63 7.4 45.2 -88.7 -3.492
07:58 1022 30.18 852 25.16 14.2 57.5 62 7.1 44.8 -88.7 -3.492
07:59 1022 30.18 852 25.16 14.2 57.6 60 6.7 44.1 -88.7 -3.492
08:00 1022 30.18 852 25.16 14.3 57.7 62 7.3 45.1 -88.7 -3.492
08:01 1022 30.18 852 25.16 14.4 57.9 60 6.8 44.2 -88.7 -3.492
08:02 1022 30.18 852 25.16 14.5 58.1 62 7.3 45.1 -88.7 -3.492
08:03 1022 30.18 852 25.16 14.6 58.2 62 7.5 45.5 -88.6 -3.488
08:04 1022 30.18 852 25.16 14.7 58.5 59 6.9 44.4 -88.6 -3.488
08:05 1022 30.18 852 25.16 14.8 58.7 61 7.5 45.5 -88.6 -3.488
08:06 1022 30.18 852 25.16 15 59 59 7 44.6 -88.6 -3.488
08:07 1022 30.18 852 25.16 15.2 59.3 57 6.8 44.2 -88.6 -3.488
08:08 1022 30.18 852 25.16 15.3 59.5 58 7 44.6 -88.6 -3.488
08:09 1022 30.18 852 25.16 15.4 59.6 56 6.7 44.1 -88.6 -3.488
08:10 1022 30.18 852 25.16 15.4 59.7 58 7.3 45.1 -88.6 -3.488
08:11 1022 30.18 852 25.16 15.4 59.8 58 7.3 45.2 -88.5 -3.484
08:12 1022 30.18 852 25.16 15.5 59.8 60 7.8 46.1 -88.5 -3.484
08:13 1022 30.18 852 25.16 15.6 60 62 8.5 47.3 -88.5 -3.484
08:14 1022 30.18 852 25.16 15.6 60.1 59 7.8 46 -88.5 -3.484
08:15 1022 30.18 852 25.16 15.7 60.3 58 7.6 45.7 -88.5 -3.484
08:16 1023 30.21 852 25.16 15.8 60.5 58 7.8 46 -88.4 -3.48
08:17 1022 30.18 852 25.16 16 60.8 56 7.3 45.1 -88.4 -3.48
08:18 1022 30.18 852 25.16 16.1 60.9 56 7.5 45.5 -88.4 -3.48
08:19 1022 30.18 852 25.16 16.1 61 58 7.8 46.1 -88.4 -3.48
08:20 1023 30.21 852 25.16 16.2 61.1 55 7.3 45.2 -88.4 -3.48
08:21 1023 30.21 852 25.16 16.2 61.2 54 6.9 44.4 -88.4 -3.48
08:22 1023 30.21 852 25.16 16.2 61.2 56 7.6 45.7 -88.3 -3.476
08:23 1023 30.21 852 25.16 16.2 61.2 53 6.8 44.2 -88.3 -3.476
08:24 1022 30.18 852 25.16 16.3 61.4 57 7.9 46.2 -88.3 -3.476
08:25 1023 30.21 852 25.16 16.5 61.6 56 7.8 46.1 -88.3 -3.476
08:26 1023 30.21 852 25.16 16.6 61.8 54 7.3 45.1 -88.3 -3.476
08:27 1023 30.21 852 25.16 16.7 62.1 54 7.5 45.4 -88.2 -3.472
08:28 1023 30.21 852 25.16 16.9 62.4 55 8 46.4 -88.2 -3.472
08:29 1023 30.21 852 25.16 17 62.6 52 7.1 44.8 -88.2 -3.472
08:30 1023 30.21 852 25.16 17.1 62.8 56 8.2 46.8 -88.2 -3.472
08:31 1023 30.21 852 25.16 17.2 62.9 51 7.2 44.9 -88.2 -3.472
08:32 1023 30.21 852 25.16 17.3 63.1 54 8.1 46.5 -88.2 -3.472
08:33 1023 30.21 852 25.16 17.4 63.3 50 6.9 44.4 -88.1 -3.469
08:34 1023 30.21 852 25.16 17.5 63.4 54 8.1 46.5 -88.1 -3.469
08:35 1023 30.21 852 25.16 17.6 63.7 50 7.3 45.1 -88.1 -3.469
08:36 1023 30.21 852 25.16 17.8 64 52 7.8 46 -88.1 -3.469
08:37 1023 30.21 852 25.16 17.9 64.3 46 6.3 43.3 -88 -3.465
08:38 1023 30.21 852 25.16 18 64.5 48 7.1 44.7 -88 -3.465
08:39 1023 30.21 852 25.16 18.2 64.7 48 7.2 44.9 -88 -3.465
08:40 1023 30.21 852 25.16 18.2 64.7 47 6.8 44.3 -88 -3.465
08:41 1023 30.21 852 25.16 18.2 64.8 47 6.9 44.4 -87.9 -3.461
08:42 1022 30.18 852 25.16 18.3 64.9 49 7.6 45.7 -87.9 -3.461
08:43 1022 30.18 852 25.16 18.4 65.1 48 7.2 45 -87.9 -3.461
08:44 1022 30.18 852 25.16 18.4 65.2 45 6.5 43.7 -87.9 -3.461
08:45 1022 30.18 852 25.16 18.6 65.4 43 5.7 42.3 -87.9 -3.461
08:46 1022 30.18 852 25.16 18.9 66 46 7.1 44.8 -87.8 -3.457
08:47 1022 30.18 852 25.16 19.1 66.4 43 6.3 43.3 -87.8 -3.457
08:48 1022 30.18 852 25.16 19.2 66.6 46 7.3 45.2 -87.8 -3.457
08:49 1022 30.18 852 25.16 19.2 66.6 44 6.7 44.1 -87.8 -3.457
08:50 1022 30.18 852 25.16 19.1 66.5 45 7 44.6 -87.8 -3.457
08:51 1022 30.18 852 25.16 19.1 66.4 44 6.9 44.4 -87.7 -3.453
08:52 1022 30.18 852 25.16 19 66.1 42 5.8 42.5 -87.7 -3.453
08:53 1022 30.18 852 25.16 19 66.1 43 6.1 43 -87.7 -3.453
08:54 1022 30.18 852 25.16 18.9 66.1 44 6.4 43.6 -87.7 -3.453
08:55 1022 30.18 852 25.16 18.9 66.1 44 6.6 43.8 -87.6 -3.449
08:56 1022 30.18 852 25.16 19 66.1 40 5.4 41.6 -87.6 -3.449
08:57 1022 30.18 852 25.16 18.9 66.1 42 5.7 42.3 -87.6 -3.449
08:58 1022 30.18 852 25.16 18.9 66.1 41 5.4 41.8 -87.6 -3.449
08:59 1022 30.18 852 25.16 18.9 66.1 47 7.5 45.5 -87.5 -3.445
09:00 1022 30.18 852 25.16 19 66.2 42 5.9 42.6 -87.5 -3.445
09:01 1022 30.18 851 25.13 19.1 66.3 40 5.4 41.7 -87.5 -3.445
09:02 1022 30.18 851 25.13 19.1 66.4 37 4.3 39.8 -87.5 -3.445
09:03 1022 30.18 852 25.16 19.1 66.4 38 4.8 40.6 -87.4 -3.441
09:04 1022 30.18 852 25.16 19.2 66.5 41 5.7 42.3 -87.4 -3.441
09:05 1022 30.18 852 25.16 19.4 66.8 40 5.6 42.2 -87.4 -3.441
09:06 1022 30.18 852 25.16 19.5 67.1 42 6.4 43.6 -87.4 -3.441
09:07 1022 30.18 852 25.16 19.7 67.4 41 6.1 43 -87.3 -3.437
09:08 1022 30.18 852 25.16 19.8 67.6 37 4.9 40.8 -87.3 -3.437
09:09 1022 30.18 852 25.16 19.8 67.7 40 6.1 43 -87.3 -3.437
09:10 1022 30.18 852 25.16 19.8 67.7 40 5.9 42.6 -87.2 -3.433
09:11 1022 30.18 852 25.16 19.8 67.7 43 7.2 44.9 -87.2 -3.433
09:12 1022 30.18 852 25.16 19.8 67.6 41 6.2 43.1 -87.2 -3.433
09:13 1022 30.18 851 25.13 19.7 67.5 40 5.9 42.5 -87.2 -3.433
09:14 1022 30.18 851 25.13 19.7 67.4 40 5.8 42.4 -87.2 -3.433
09:15 1022 30.18 851 25.13 19.7 67.4 37 4.8 40.7 -87.2 -3.433
09:16 1022 30.18 851 25.13 19.7 67.5 38 5.2 41.4 -87.1 -3.429
09:17 1022 30.18 851 25.13 19.7 67.4 38 5 41 -87.1 -3.429
09:18 1022 30.18 851 25.13 19.8 67.6 43 7.1 44.7 -87 -3.425
09:19 1022 30.18 851 25.13 20 67.9 39 5.6 42.1 -87 -3.425
09:20 1022 30.18 851 25.13 20.1 68.2 37 5.2 41.4 -87 -3.425
09:21 1022 30.18 851 25.13 20.1 68.2 38 5.4 41.8 -87 -3.425
09:22 1022 30.18 851 25.13 20.1 68.3 35 4.3 39.7 -87 -3.425
09:23 1022 30.18 851 25.13 20.2 68.4 35 4.5 40.1 -86.9 -3.421
09:24 1022 30.18 851 25.13 20.3 68.5 37 5.4 41.8 -86.9 -3.421
09:25 1022 30.18 851 25.13 20.3 68.6 35 4.5 40.2 -86.8 -3.417
09:26 1022 30.18 851 25.13 20.3 68.6 38 5.7 42.2 -86.8 -3.417
09:27 1022 30.18 851 25.13 20.4 68.6 36 4.9 40.8 -86.8 -3.417
09:28 1022 30.18 851 25.13 20.4 68.7 35 4.5 40.2 -86.7 -3.413
09:29 1022 30.18 851 25.13 20.5 68.8 35 4.7 40.4 -86.7 -3.413
09:30 1022 30.18 851 25.13 20.6 69.1 36 5 41.1 -86.7 -3.413
09:31 1022 30.18 851 25.13 20.8 69.5 39 6.4 43.5 -86.7 -3.413
09:32 1022 30.18 851 25.13 21 69.8 35 5.2 41.3 -86.6 -3.409
09:33 1022 30.18 851 25.13 21.1 70 34 4.8 40.6 -86.6 -3.409
09:34 1022 30.18 851 25.13 21.2 70.1 34 4.9 40.9 -86.6 -3.409
09:35 1022 30.18 851 25.13 21.2 70.1 40 7.2 44.9 -86.5 -3.406
09:36 1022 30.18 851 25.13 21.3 70.3 34 5.1 41.2 -86.5 -3.406
09:37 1022 30.18 851 25.13 21.2 70.1 37 6.1 42.9 -86.5 -3.406
09:38 1022 30.18 851 25.13 21 69.9 33 4.2 39.6 -86.5 -3.406
09:39 1022 30.18 851 25.13 20.9 69.7 38 6.2 43.2 -86.4 -3.402
09:40 1022 30.18 851 25.13 20.9 69.7 38 6.3 43.3 -86.4 -3.402
09:41 1022 30.18 851 25.13 21 69.8 34 4.6 40.3 -86.4 -3.402
09:42 1022 30.18 851 25.13 21.1 69.9 39 6.8 44.2 -86.3 -3.398
09:43 1022 30.18 851 25.13 21.2 70.1 36 5.7 42.3 -86.3 -3.398
09:44 1022 30.18 851 25.13 21.3 70.3 37 6.3 43.3 -86.3 -3.398
09:45 1022 30.18 851 25.13 21.2 70.2 38 6.4 43.4 -86.3 -3.398
09:46 1022 30.18 851 25.13 21.1 70.1 39 6.8 44.3 -86.2 -3.394
09:47 1022 30.18 851 25.13 21.2 70.1 35 5.1 41.2 -86.2 -3.394
09:48 1022 30.18 851 25.13 21.1 69.9 38 6.2 43.2 -86.1 -3.39
09:49 1022 30.18 851 25.13 21.1 69.9 40 7.2 44.9 -86.1 -3.39
09:50 1022 30.18 851 25.13 21.1 70 36 5.7 42.3 -86.1 -3.39
09:51 1022 30.18 851 25.13 21.1 69.9 36 5.7 42.2 -86 -3.386
09:52 1022 30.18 851 25.13 21.1 70 39 6.9 44.5 -86 -3.386
09:53 1022 30.18 851 25.13 21.3 70.4 36 5.8 42.4 -85.9 -3.382
09:54 1022 30.18 851 25.13 21.3 70.4 36 5.9 42.6 -85.9 -3.382
09:55 1022 30.18 851 25.13 21.2 70.1 35 5.3 41.5 -85.9 -3.382
09:56 1022 30.18 851 25.13 21.2 70.2 38 6.7 44 -85.9 -3.382
09:57 1022 30.18 851 25.13 21.3 70.4 40 7.4 45.3 -85.8 -3.378
09:58 1022 30.18 851 25.13 21.5 70.7 38 6.8 44.3 -85.8 -3.378
09:59 1022 30.18 851 25.13 21.5 70.7 35 5.8 42.4 -85.7 -3.374
10:00 1022 30.18 851 25.13 21.4 70.4 37 6.4 43.4 -85.7 -3.374
10:01 1022 30.18 851 25.13 21.5 70.6 35 5.7 42.2 -85.7 -3.374
10:02 1022 30.18 851 25.13 21.5 70.8 37 6.4 43.5 -85.6 -3.37
10:03 1022 30.18 851 25.13 21.6 70.8 37 6.3 43.3 -85.6 -3.37
10:04 1022 30.18 851 25.13 21.7 71 33 4.8 40.7 -85.6 -3.37
10:05 1022 30.18 851 25.13 21.7 71.1 33 4.8 40.6 -85.5 -3.366
10:06 1022 30.18 851 25.13 21.8 71.2 36 6.1 43 -85.5 -3.366
10:07 1022 30.18 851 25.13 22 71.5 33 5.1 41.1 -85.4 -3.362
10:08 1022 30.18 851 25.13 22.1 71.8 33 5.3 41.5 -85.4 -3.362
10:09 1022 30.18 851 25.13 22 71.6 34 5.6 42 -85.4 -3.362
10:10 1022 30.18 851 25.13 21.9 71.5 33 5 41 -85.3 -3.358
10:11 1022 30.18 851 25.13 22 71.6 36 6.5 43.7 -85.3 -3.358
10:12 1022 30.18 851 25.13 22.1 71.8 31 4.3 39.8 -85.2 -3.354
10:13 1022 30.18 851 25.13 22.1 71.9 33 5.3 41.6 -85.2 -3.354
10:14 1022 30.18 851 25.13 22.1 71.7 32 4.8 40.6 -85.2 -3.354
10:15 1022 30.18 851 25.13 22 71.5 32 4.6 40.3 -85.1 -3.35
10:16 1022 30.18 851 25.13 22.1 71.9 33 5.2 41.3 -85.1 -3.35
10:17 1022 30.18 851 25.13 22.4 72.4 37 7.1 44.8 -85 -3.346
10:18 1022 30.18 851 25.13 22.6 72.7 33 5.8 42.5 -85 -3.346
10:19 1022 30.18 851 25.13 22.5 72.5 32 5.3 41.6 -85 -3.346
10:20 1022 30.18 851 25.13 22.3 72.2 32 4.9 40.8 -85 -3.346
10:21 1022 30.18 851 25.13 22.3 72.1 32 5.1 41.1 -84.9 -3.343
10:22 1022 30.18 851 25.13 22.3 72.1 30 4.3 39.7 -84.9 -3.343
10:23 1022 30.18 851 25.13 22.2 72 33 5.6 42 -84.9 -3.343
10:24 1022 30.18 851 25.13 22.4 72.3 31 4.9 40.7 -84.8 -3.339
10:25 1022 30.18 851 25.13 22.7 72.9 32 5.5 41.8 -84.8 -3.339
10:26 1022 30.18 851 25.13 23.1 73.6 31 5.2 41.4 -84.7 -3.335
10:27 1022 30.18 851 25.13 23.3 73.9 32 6.1 42.9 -84.7 -3.335
10:28 1022 30.18 851 25.13 23.2 73.8 29 4.5 40.2 -84.6 -3.331
10:29 1022 30.18 851 25.13 23.1 73.6 30 4.6 40.4 -84.6 -3.331
10:30 1022 30.18 851 25.13 23 73.5 30 4.7 40.4 -84.6 -3.331
10:31 1022 30.18 851 25.13 23.1 73.7 33 6.4 43.5 -84.5 -3.327
10:32 1022 30.18 851 25.13 23.1 73.6 34 6.7 44 -84.5 -3.327
10:33 1022 30.18 851 25.13 23.1 73.5 39 8.5 47.3 -84.4 -3.323
10:34 1022 30.18 851 25.13 23.2 73.7 34 6.6 43.8 -84.4 -3.323
10:35 1022 30.18 851 25.13 23.3 73.9 31 5.2 41.3 -84.3 -3.319
10:36 1022 30.18 851 25.13 23.2 73.7 32 5.6 42.1 -84.3 -3.319
10:37 1022 30.18 851 25.13 23.2 73.8 33 6.2 43.1 -84.2 -3.315
10:38 1022 30.18 851 25.13 23.4 74.1 32 6.1 43 -84.2 -3.315
10:39 1022 30.18 851 25.13 23.4 74.1 31 5.4 41.7 -84.1 -3.311
10:40 1022 30.18 851 25.13 23.3 74 32 6 42.8 -84 -3.307
10:41 1022 30.18 851 25.13 23.4 74.2 33 6.5 43.8 -84 -3.307
10:42 1022 30.18 851 25.13 23.4 74.1 32 5.9 42.7 -83.9 -3.303
10:43 1022 30.18 851 25.13 23.4 74 34 6.9 44.4 -83.8 -3.299
10:44 1022 30.18 851 25.13 23.4 74.1 30 4.9 40.8 -83.8 -3.299
10:45 1022 30.18 851 25.13 23.4 74.1 36 7.5 45.5 -83.7 -3.295
10:46 1022 30.18 851 25.13 23.4 74.1 30 5.1 41.2 -83.6 -3.291
10:47 1022 30.18 851 25.13 23.4 74.2 29 4.7 40.5 -83.6 -3.291
10:48 1022 30.18 851 25.13 23.4 74 33 6.2 43.1 -83.5 -3.287
10:49 1022 30.18 851 25.13 23.4 74 30 5.2 41.3 -83.4 -3.283
10:50 1022 30.18 851 25.13 23.5 74.3 33 6.6 43.9 -83.4 -3.283
10:51 1022 30.18 851 25.13 23.6 74.5 33 6.7 44 -83.3 -3.28
10:52 1022 30.18 851 25.13 23.6 74.5 33 6.5 43.7 -83.2 -3.276
10:53 1022 30.18 851 25.13 23.6 74.5 30 5.3 41.5 -83.2 -3.276
10:54 1022 30.18 851 25.13 23.8 74.8 32 6.4 43.5 -83.1 -3.272
10:55 1022 30.18 851 25.13 23.9 75 37 8.4 47 -83 -3.268
10:56 1022 30.18 851 25.13 23.9 75 32 6.5 43.7 -82.9 -3.264
10:57 1022 30.18 851 25.13 23.8 74.9 30 5.5 41.9 -82.9 -3.264
10:58 1022 30.18 851 25.13 23.8 74.8 31 5.8 42.5 -82.8 -3.26
10:59 1022 30.18 851 25.13 23.8 74.8 32 6.5 43.7 -82.8 -3.26
11:00 1022 30.18 851 25.13 23.7 74.6 38 8.6 47.6 -82.7 -3.256
11:01 1022 30.18 851 25.13 23.7 74.7 33 6.5 43.8 -82.6 -3.252
11:02 1022 30.18 851 25.13 23.8 74.8 37 8.4 47.1 -82.6 -3.252
11:03 1022 30.18 851 25.13 23.9 75 34 7.5 45.4 -82.5 -3.248
11:04 1022 30.18 851 25.13 24 75.1 30 5.6 42.1 -82.4 -3.244
11:05 1022 30.18 851 25.13 23.9 75 29 4.9 40.8 -82.3 -3.24
11:06 1022 30.18 851 25.13 23.9 75 32 6.2 43.2 -82.3 -3.24
11:07 1022 30.18 851 25.13 24 75.2 29 5.3 41.5 -82.2 -3.236
11:08 1022 30.18 851 25.13 24.1 75.4 30 5.6 42.1 -82.1 -3.232
11:09 1022 30.18 851 25.13 24.2 75.5 29 5.1 41.2 -82 -3.228
11:10 1022 30.18 851 25.13 24 75.2 29 5.3 41.5 -82 -3.228
11:11 1022 30.18 851 25.13 24 75.2 34 7.2 45 -81.9 -3.224
11:12 1022 30.18 851 25.13 24 75.2 30 5.4 41.8 -81.8 -3.22
11:13 1022 30.18 851 25.13 24 75.1 33 6.7 44.1 -81.8 -3.22
11:14 1022 30.18 851 25.13 23.9 75.1 30 5.5 41.8 -81.7 -3.217
11:15 1022 30.18 851 25.13 24 75.3 35 8 46.4 -81.6 -3.213
11:16 1022 30.18 851 25.13 24.1 75.4 32 6.5 43.7 -81.5 -3.209
11:17 1022 30.18 851 25.13 24.1 75.4 31 6.1 42.9 -81.5 -3.209
11:18 1022 30.18 851 25.13 24.1 75.3 30 5.4 41.7 -81.4 -3.205
11:19 1022 30.18 851 25.13 24.1 75.3 29 5.4 41.7 -81.3 -3.201
11:20 1022 30.18 851 25.13 24 75.2 32 6.3 43.3 -81.3 -3.201
11:21 1022 30.18 851 25.13 23.9 75 30 5.4 41.7 -81.2 -3.197
11:22 1022 30.18 851 25.13 24 75.1 31 6.2 43.2 -81.1 -3.193
11:23 1022 30.18 851 25.13 24.1 75.4 30 5.4 41.8 -81.1 -3.193
11:24 1022 30.18 851 25.13 24.1 75.4 29 5.3 41.5 -81 -3.189
11:25 1022 30.18 851 25.13 24.2 75.5 31 6.1 43 -80.9 -3.185
11:26 1021 30.15 851 25.13 24.2 75.5 34 7.3 45.2 -80.9 -3.185
11:27 1021 30.15 851 25.13 24.3 75.8 32 6.7 44 -80.8 -3.181
11:28 1021 30.15 851 25.13 24.5 76.1 33 7.4 45.3 -80.7 -3.177
11:29 1021 30.15 851 25.13 24.6 76.3 31 6.6 43.9 -80.6 -3.173
11:30 1021 30.15 851 25.13 24.7 76.4 32 7.1 44.7 -80.6 -3.173
11:31 1021 30.15 851 25.13 24.7 76.5 29 5.5 41.9 -80.5 -3.169
11:32 1021 30.15 851 25.13 24.7 76.4 32 7 44.6 -80.5 -3.169
11:33 1021 30.15 851 25.13 24.7 76.5 31 6.7 44.1 -80.4 -3.165
11:34 1021 30.15 851 25.13 24.8 76.6 29 5.6 42.1 -80.3 -3.161
11:35 1021 30.15 851 25.13 24.8 76.7 30 6.4 43.5 -80.3 -3.161
11:36 1021 30.15 851 25.13 25 76.9 31 6.7 44.1 -80.2 -3.157
11:37 1021 30.15 851 25.13 24.9 76.8 29 6 42.9 -80.1 -3.154
11:38 1022 30.18 851 25.13 24.8 76.7 32 7.3 45.1 -80 -3.15
11:39 1021 30.15 851 25.13 24.8 76.7 32 7.3 45.2 -80 -3.15
11:40 1022 30.18 851 25.13 24.8 76.7 30 6.4 43.6 -79.9 -3.146
11:41 1021 30.15 851 25.13 24.8 76.6 28 5.2 41.4 -79.8 -3.142
11:42 1021 30.15 851 25.13 24.6 76.3 28 5.1 41.1 -79.8 -3.142
11:43 1021 30.15 851 25.13 24.6 76.3 36 8.8 47.8 -79.7 -3.138
11:44 1021 30.15 851 25.13 24.7 76.4 33 7.6 45.8 -79.6 -3.134
11:45 1021 30.15 851 25.13 24.8 76.6 32 7.4 45.2 -79.6 -3.134
11:46 1021 30.15 851 25.13 24.9 76.7 29 6 42.7 -79.5 -3.13
11:47 1021 30.15 851 25.13 24.8 76.7 29 5.8 42.4 -79.5 -3.13
11:48 1021 30.15 851 25.13 24.8 76.7 29 5.6 42.1 -79.4 -3.126
11:49 1021 30.15 851 25.13 24.9 76.8 28 5.4 41.6 -79.3 -3.122
11:50 1021 30.15 850 25.1 25 77 32 7.3 45.2 -79.3 -3.122
11:51 1021 30.15 850 25.1 25 77 32 7.3 45.1 -79.2 -3.118
11:52 1021 30.15 850 25.1 25 77 31 7.1 44.7 -79.2 -3.118
11:53 1021 30.15 850 25.1 25 76.9 33 7.7 45.8 -79.1 -3.114
11:54 1021 30.15 850 25.1 25 76.9 36 9 48.2 -79 -3.11
11:55 1021 30.15 850 25.1 25.1 77.2 33 7.8 46.1 -79 -3.11
11:56 1021 30.15 850 25.1 25.1 77.3 31 6.9 44.3 -78.9 -3.106
11:57 1021 30.15 850 25.1 25.1 77.2 30 6.3 43.4 -78.9 -3.106
11:58 1021 30.15 850 25.1 25.1 77.2 31 6.9 44.4 -78.8 -3.102
11:59 1021 30.15 850 25.1 25 77.1 27 5 41.1 -78.7 -3.098
12:00 1021 30.15 850 25.1 25 77 30 6.7 44 -78.7 -3.098
12:01 1021 30.15 850 25.1 24.9 76.8 28 5.5 41.9 -78.6 -3.094
12:02 1021 30.15 850 25.1 24.9 76.9 29 5.8 42.4 -78.6 -3.094
12:03 1021 30.15 850 25.1 25 77 28 5.4 41.8 -78.5 -3.091
12:04 1021 30.15 850 25.1 25.1 77.1 29 6 42.7 -78.5 -3.091
12:05 1021 30.15 850 25.1 25.2 77.3 30 6.5 43.7 -78.4 -3.087
12:06 1021 30.15 850 25.1 25.3 77.5 29 6.1 43 -78.4 -3.087
12:07 1021 30.15 850 25.1 25.3 77.5 27 5.4 41.7 -78.3 -3.083
12:08 1021 30.15 850 25.1 25.3 77.6 30 6.9 44.4 -78.2 -3.079
12:09 1021 30.15 850 25.1 25.5 77.9 29 6.4 43.5 -78.2 -3.079
12:10 1021 30.15 850 25.1 25.6 78.1 29 6.3 43.4 -78.1 -3.075
12:11 1021 30.15 850 25.1 25.7 78.3 31 7.6 45.7 -78 -3.071
12:12 1021 30.15 850 25.1 25.8 78.4 29 6.8 44.2 -78 -3.071
12:13 1021 30.15 850 25.1 25.9 78.6 31 7.9 46.2 -77.9 -3.067
12:14 1021 30.15 850 25.1 25.9 78.7 26 5.2 41.4 -77.9 -3.067
12:15 1021 30.15 850 25.1 25.8 78.4 29 6.8 44.2 -77.8 -3.063
12:16 1021 30.15 850 25.1 25.7 78.3 30 7.1 44.8 -77.8 -3.063
12:17 1021 30.15 850 25.1 25.8 78.4 26 5 41 -77.7 -3.059
12:18 1021 30.15 850 25.1 25.8 78.5 27 5.8 42.4 -77.6 -3.055
12:19 1021 30.15 850 25.1 25.8 78.5 26 5.2 41.3 -77.6 -3.055
12:20 1021 30.15 850 25.1 25.9 78.6 26 5.4 41.7 -77.5 -3.051
12:21 1021 30.15 850 25.1 26 78.8 28 6.5 43.8 -77.4 -3.047
12:22 1021 30.15 850 25.1 26.2 79.1 25 4.8 40.7 -77.3 -3.043
12:23 1021 30.15 850 25.1 26.1 79 29 7 44.7 -77.3 -3.043
12:24 1021 30.15 850 25.1 26.2 79.1 26 5.4 41.7 -77.2 -3.039
12:25 1021 30.15 850 25.1 26.2 79.2 26 5.4 41.8 -77.2 -3.039
12:26 1021 30.15 850 25.1 26.2 79.2 28 6.4 43.6 -77.1 -3.035
12:27 1021 30.15 850 25.1 26.4 79.5 28 6.7 44 -77 -3.031
12:28 1021 30.15 850 25.1 26.5 79.8 29 7.3 45.2 -76.9 -3.028
12:29 1021 30.15 850 25.1 26.5 79.8 31 8.4 47 -76.9 -3.028
12:30 1021 30.15 850 25.1 26.6 79.8 29 7.1 44.8 -76.8 -3.024
12:31 1021 30.15 850 25.1 26.6 79.8 27 6.6 43.8 -76.8 -3.024
12:32 1021 30.15 850 25.1 26.5 79.8 28 6.6 43.9 -76.7 -3.02
12:33 1021 30.15 850 25.1 26.5 79.6 29 7.4 45.3 -76.6 -3.016
12:34 1021 30.15 850 25.1 26.6 79.9 28 7 44.5 -76.5 -3.012
12:35 1021 30.15 850 25.1 26.7 80.1 26 6 42.9 -76.5 -3.012
12:36 1021 30.15 850 25.1 26.9 80.3 26 6.1 42.9 -76.4 -3.008
12:37 1021 30.15 850 25.1 26.9 80.4 25 5.4 41.7 -76.3 -3.004
12:38 1021 30.15 850 25.1 27 80.5 29 7.8 46 -76.3 -3.004
12:39 1021 30.15 850 25.1 27.1 80.8 26 6.3 43.3 -76.2 -3
12:40 1021 30.15 850 25.1 27.2 81 27 6.8 44.3 -76.1 -2.996
12:41 1021 30.15 850 25.1 27.4 81.3 27 6.9 44.5 -76 -2.992
12:42 1021 30.15 850 25.1 27.4 81.3 29 8.3 46.9 -76 -2.992
12:43 1021 30.15 850 25.1 27.3 81.2 28 7.5 45.4 -75.9 -2.988
12:44 1021 30.15 850 25.1 27.4 81.4 26 6.3 43.4 -75.8 -2.984
12:45 1021 30.15 850 25.1 27.5 81.5 24 5.7 42.2 -75.7 -2.98
12:46 1021 30.15 850 25.1 27.5 81.5 27 7 44.5 -75.7 -2.98
12:47 1021 30.15 850 25.1 27.5 81.4 23 5 41.1 -75.6 -2.976
12:48 1021 30.15 850 25.1 27.5 81.4 25 5.7 42.3 -75.5 -2.972
12:49 1021 30.15 850 25.1 27.5 81.5 27 7.3 45.1 -75.5 -2.972
12:50 1021 30.15 850 25.1 27.6 81.7 26 6.5 43.7 -75.4 -2.969
12:51 1021 30.15 850 25.1 27.6 81.7 24 5.7 42.3 -75.3 -2.965
12:52 1021 30.15 850 25.1 27.6 81.7 25 6 42.9 -75.2 -2.961
12:53 1020 30.12 850 25.1 27.6 81.6 25 5.9 42.6 -75.2 -2.961
12:54 1020 30.12 850 25.1 27.5 81.5 26 6.6 43.8 -75.1 -2.957
12:55 1020 30.12 850 25.1 27.6 81.6 29 8.2 46.7 -75 -2.953
12:56 1020 30.12 850 25.1 27.8 82.1 25 6.1 43 -74.9 -2.949
12:57 1020 30.12 850 25.1 28 82.4 27 7.4 45.3 -74.9 -2.949
12:58 1020 30.12 850 25.1 28.1 82.5 27 7.5 45.5 -74.8 -2.945
12:59 1020 30.12 850 25.1 28.1 82.6 27 7.9 46.2 -74.8 -2.945
13:00 1020 30.12 850 25.1 28.1 82.6 27 7.6 45.8 -74.7 -2.941
13:01 1020 30.12 850 25.1 28.2 82.8 26 7.2 45 -74.7 -2.941
13:02 1020 30.12 850 25.1 28.3 82.9 24 5.9 42.6 -74.6 -2.937
13:03 1020 30.12 850 25.1 28.3 82.9 26 7.5 45.5 -74.5 -2.933
13:04 1020 30.12 850 25.1 28.3 82.9 24 5.9 42.6 -74.5 -2.933
13:05 1020 30.12 850 25.1 28.2 82.7 27 7.6 45.7 -74.4 -2.929
13:06 1020 30.12 850 25.1 28.2 82.7 23 5.1 41.2 -74.3 -2.925
13:07 1020 30.12 850 25.1 28 82.5 26 7 44.7 -74.3 -2.925
13:08 1020 30.12 850 25.1 28 82.4 26 7.1 44.8 -74.2 -2.921
13:09 1020 30.12 850 25.1 28 82.4 22 4.7 40.5 -74.2 -2.921
13:10 1020 30.12 850 25.1 28 82.4 28 8 46.4 -74.1 -2.917
13:11 1020 30.12 849 25.07 28 82.5 26 7.2 44.9 -74.1 -2.917
13:12 1020 30.12 849 25.07 28.2 82.7 24 5.9 42.6 -74 -2.913
13:13 1020 30.12 849 25.07 28.2 82.8 25 6.9 44.4 -73.9 -2.909
13:14 1020 30.12 849 25.07 28.2 82.8 30 9.2 48.6 -73.9 -2.909
13:15 1020 30.12 849 25.07 28.3 82.9 25 6.5 43.6 -73.8 -2.906
13:16 1020 30.12 849 25.07 28.4 83 24 6.3 43.4 -73.8 -2.906
13:17 1020 30.12 849 25.07 28.3 82.9 26 7.5 45.5 -73.7 -2.902
13:18 1020 30.12 849 25.07 28.2 82.8 26 7.4 45.4 -73.7 -2.902
13:19 1020 30.12 849 25.07 28.3 82.9 27 7.6 45.6 -73.6 -2.898
13:20 1020 30.12 849 25.07 28.3 82.9 24 5.8 42.5 -73.6 -2.898
13:21 1020 30.12 849 25.07 28.3 83 23 5.6 42.1 -73.5 -2.894
13:22 1020 30.12 849 25.07 28.3 82.9 24 6.3 43.3 -73.4 -2.89
13:23 1020 30.12 849 25.07 28.4 83.1 28 8.3 46.9 -73.4 -2.89
13:24 1020 30.12 849 25.07 28.4 83.2 22 5.3 41.5 -73.4 -2.89
13:25 1020 30.12 849 25.07 28.4 83.1 24 6.4 43.5 -73.3 -2.886
13:26 1020 30.12 849 25.07 28.5 83.2 23 5.5 41.9 -73.2 -2.882
13:27 1020 30.12 849 25.07 28.5 83.3 23 5.9 42.6 -73.2 -2.882
13:28 1020 30.12 849 25.07 28.5 83.3 23 5.6 42.2 -73.2 -2.882
13:29 1020 30.12 849 25.07 28.6 83.5 25 7.2 45 -73.1 -2.878
13:30 1020 30.12 849 25.07 28.6 83.5 24 6.2 43.2 -73.1 -2.878
13:31 1020 30.12 849 25.07 28.7 83.7 23 6.1 43 -73 -2.874
13:32 1020 30.12 849 25.07 28.9 84 23 5.8 42.5 -73 -2.874
13:33 1020 30.12 849 25.07 28.9 84 25 7 44.5 -72.9 -2.87
13:34 1020 30.12 849 25.07 28.9 84 25 7.1 44.8 -72.9 -2.87
13:35 1020 30.12 849 25.07 28.9 84 28 9.1 48.4 -72.8 -2.866
13:36 1020 30.12 849 25.07 29.1 84.4 26 8.1 46.6 -72.8 -2.866
13:37 1020 30.12 849 25.07 29.3 84.7 22 6 42.8 -72.8 -2.866
13:38 1020 30.12 849 25.07 29.3 84.8 25 7.4 45.2 -72.7 -2.862
13:39 1020 30.12 849 25.07 29.4 84.9 22 5.8 42.4 -72.6 -2.858
13:40 1020 30.12 849 25.07 29.4 85 25 7.9 46.1 -72.6 -2.858
13:41 1020 30.12 849 25.07 29.5 85 25 7.6 45.7 -72.5 -2.854
13:42 1020 30.12 849 25.07 29.6 85.2 22 6.1 43.1 -72.5 -2.854
13:43 1020 30.12 849 25.07 29.4 85 20 4.7 40.4 -72.4 -2.85
13:44 1020 30.12 849 25.07 29.3 84.7 22 6 42.8 -72.4 -2.85
13:45 1020 30.12 849 25.07 29.2 84.6 21 4.9 40.9 -72.3 -2.846
13:46 1020 30.12 849 25.07 29.1 84.4 25 7.4 45.3 -72.3 -2.846
13:47 1020 30.12 849 25.07 29 84.1 25 7.2 45 -72.2 -2.843
13:48 1020 30.12 849 25.07 28.9 84.1 25 7.4 45.3 -72.2 -2.843
13:49 1020 30.12 849 25.07 29 84.1 23 6 42.9 -72.1 -2.839
13:50 1020 30.12 849 25.07 29.2 84.5 24 7 44.7 -72 -2.835
13:51 1020 30.12 849 25.07 29.4 84.9 21 5.4 41.7 -72 -2.835
13:52 1020 30.12 849 25.07 29.6 85.3 22 6.1 43.1 -71.9 -2.831
13:53 1020 30.12 849 25.07 29.8 85.6 24 7.2 44.9 -71.9 -2.831
13:54 1020 30.12 849 25.07 29.9 85.8 23 7.1 44.8 -71.8 -2.827
13:55 1020 30.12 849 25.07 30.1 86.3 21 5.8 42.4 -71.8 -2.827
13:56 1019 30.09 849 25.07 29.9 85.9 23 7 44.6 -71.8 -2.827
13:57 1019 30.09 849 25.07 29.7 85.5 23 6.8 44.3 -71.7 -2.823
13:58 1020 30.12 849 25.07 29.6 85.3 21 5.6 42.1 -71.7 -2.823
13:59 1019 30.09 849 25.07 29.5 85 23 6.6 43.9 -71.6 -2.819
14:00 1019 30.09 849 25.07 29.5 85.1 22 5.8 42.5 -71.5 -2.815
14:01 1019 30.09 849 25.07 29.6 85.3 23 6.6 43.9 -71.4 -2.811
14:02 1019 30.09 849 25.07 29.6 85.3 21 5.4 41.7 -71.3 -2.807
14:03 1019 30.09 849 25.07 29.6 85.2 22 6.2 43.2 -71.3 -2.807
14:04 1019 30.09 849 25.07 29.5 85.1 23 6.6 43.9 -71.2 -2.803
14:05 1019 30.09 849 25.07 29.5 85.1 24 7.3 45.2 -71.1 -2.799
14:06 1019 30.09 849 25.07 29.6 85.3 23 6.8 44.3 -71 -2.795
14:07 1019 30.09 849 25.07 29.7 85.4 23 6.4 43.5 -70.9 -2.791
14:08 1019 30.09 849 25.07 29.6 85.4 23 6.5 43.8 -70.8 -2.787
14:09 1019 30.09 849 25.07 29.7 85.4 24 7.5 45.5 -70.8 -2.787
14:10 1019 30.09 849 25.07 29.7 85.5 23 6.9 44.4 -70.7 -2.783
14:11 1019 30.09 849 25.07 29.7 85.5 25 7.9 46.3 -70.6 -2.78
14:12 1019 30.09 848 25.04 29.7 85.4 26 8.5 47.2 -70.5 -2.776
14:13 1019 30.09 848 25.04 29.6 85.3 22 5.8 42.5 -70.5 -2.776
14:14 1019 30.09 848 25.04 29.3 84.8 26 8.1 46.5 -70.4 -2.772
14:15 1019 30.09 848 25.04 29.1 84.4 23 6.4 43.6 -70.4 -2.772
14:16 1019 30.09 848 25.04 29 84.2 26 7.7 45.9 -70.3 -2.768
14:17 1019 30.09 848 25.04 28.8 83.9 21 4.4 39.9 -70.2 -2.764
14:18 1019 30.09 848 25.04 28.8 83.8 25 7.3 45.1 -70.2 -2.764
14:19 1019 30.09 848 25.04 28.7 83.7 23 5.8 42.4 -70.1 -2.76
14:20 1019 30.09 848 25.04 28.7 83.6 26 7.9 46.1 -70.1 -2.76
14:21 1019 30.09 848 25.04 28.6 83.5 27 8.1 46.5 -70 -2.756
14:22 1019 30.09 848 25.04 28.6 83.4 27 8 46.3 -70 -2.756
14:23 1019 30.09 848 25.04 28.5 83.3 24 6.4 43.5 -70 -2.756
14:24 1019 30.09 848 25.04 28.4 83 27 7.9 46.2 -70 -2.756
14:25 1019 30.09 848 25.04 28.3 82.9 28 8.3 46.9 -70.1 -2.76
14:26 1019 30.09 848 25.04 28.2 82.7 23 5.5 42 -70.1 -2.76
14:27 1019 30.09 848 25.04 28.1 82.5 26 6.9 44.4 -70.3 -2.768
14:28 1019 30.09 848 25.04 28 82.3 26 7.1 44.8 -70.4 -2.772
14:29 1019 30.09 848 25.04 27.9 82.2 24 5.8 42.5 -70.5 -2.776
14:30 1019 30.09 848 25.04 27.9 82.2 27 7.5 45.5 -70.7 -2.783
14:31 1019 30.09 848 25.04 27.8 82.1 25 6.3 43.3 -70.9 -2.791
14:32 1019 30.09 848 25.04 27.9 82.1 23 5.1 41.1 -71 -2.795
14:33 1019 30.09 848 25.04 27.9 82.3 26 7.1 44.7 -71.2 -2.803
14:34 1019 30.09 848 25.04 27.9 82.3 30 9.3 48.7 -71.5 -2.815
14:35 1019 30.09 848 25.04 27.8 82 32 9.9 49.8 -71.8 -2.827
14:36 1019 30.09 848 25.04 27.6 81.7 31 9.4 48.8 -71.9 -2.831
14:37 1019 30.09 848 25.04 27.5 81.4 30 8.7 47.7 -71.9 -2.831
14:38 1019 30.09 848 25.04 27.3 81.2 28 7.5 45.4 -71.9 -2.831
14:39 1019 30.09 848 25.04 27.3 81.1 28 7.5 45.5 -72.1 -2.839
14:40 1019 30.09 848 25.04 27.3 81.1 30 8.5 47.4 -72.4 -2.85
14:41 1019 30.09 848 25.04 27.2 81 29 8.1 46.5 -72.8 -2.866
14:42 1019 30.09 848 25.04 27.2 81 29 8.1 46.5 -73.7 -2.902
14:43 1019 30.09 848 25.04 27.2 81 28 7.6 45.7 -74.8 -2.945
14:44 1019 30.09 848 25.04 27.2 80.9 29 7.7 45.9 -76.4 -3.008
14:45 1019 30.09 848 25.04 27.2 80.9 27 7 44.5 -78.6 -3.094
14:46 1019 30.09 848 25.04 27.2 80.9 28 7.6 45.6 -80.5 -3.169
14:47 1019 30.09 848 25.04 27.2 80.9 27 6.8 44.2 -81.6 -3.213
14:48 1019 30.09 848 25.04 27.2 81 28 7.3 45.1 -82.1 -3.232
14:49 1019 30.09 848 25.04 27.2 80.9 27 7.1 44.7 -82.1 -3.232
14:50 1019 30.09 848 25.04 27.2 80.9 28 7.4 45.3 -81.7 -3.217
14:51 1019 30.09 848 25.04 27.2 80.9 29 8 46.3 -80.9 -3.185
14:52 1019 30.09 849 25.07 27.2 80.9 28 7.5 45.5 -80.1 -3.154
14:53 1019 30.09 849 25.07 27.2 80.9 30 8.6 47.5 -79.3 -3.122
14:54 1019 30.09 849 25.07 27.1 80.8 31 8.8 47.9 -78.3 -3.083
14:55 1019 30.09 849 25.07 27 80.6 30 8.3 47 -77.3 -3.043
14:56 1019 30.09 849 25.07 26.9 80.4 30 8 46.4 -74.5 -2.933
14:57 1019 30.09 849 25.07 26.8 80.3 35 10.2 50.4 -71.9 -2.831
14:58 1019 30.09 849 25.07 26.7 80 34 9.6 49.2 -70.3 -2.768
14:59 1019 30.09 849 25.07 26.5 79.7 36 10.4 50.7 -68.4 -2.693
15:00 1019 30.09 849 25.07 26.3 79.3 31 7.9 46.1 -66.39 -2.614
15:01 1020 30.12 849 25.07 26.2 79.1 29 7.2 44.9 -65 -2.559
15:02 1020 30.12 849 25.07 26 78.9 29 7 44.7 -64.14 -2.525
15:03 1020 30.12 849 25.07 26 78.7 31 8 46.3 -63.88 -2.515
15:04 1020 30.12 849 25.07 25.8 78.4 32 8.2 46.7 -64.21 -2.528
15:05 1020 30.12 849 25.07 25.7 78.2 30 6.8 44.3 -64.63 -2.544
15:06 1020 30.12 849 25.07 25.5 78 31 7.6 45.6 -64.19 -2.527
15:07 1020 30.12 849 25.07 25.5 77.9 32 7.7 45.8 -64.07 -2.522
15:08 1020 30.12 849 25.07 25.5 77.8 31 7.5 45.5 -65.5 -2.579
15:09 1020 30.12 849 25.07 25.4 77.6 32 7.8 46.1 -66.54 -2.62
15:10 1020 30.12 849 25.07 25.3 77.5 35 9 48.1 -66.24 -2.608
15:11 1020 30.12 849 25.07 25.1 77.2 38 10 50 -65.68 -2.586
15:12 1020 30.12 849 25.07 24.8 76.7 40 10.4 50.6 -65.43 -2.576
15:13 1020 30.12 849 25.07 24.5 76.1 42 10.9 51.7 -65.76 -2.589
15:14 1020 30.12 849 25.07 24.2 75.5 45 11.8 53.2 -66.7 -2.626
15:15 1020 30.12 849 25.07 23.9 75.1 44 11.3 52.3 -67.27 -2.648
15:16 1020 30.12 849 25.07 23.8 74.8 45 11.4 52.5 -67.94 -2.675
15:17 1020 30.12 850 25.1 23.6 74.4 46 11.5 52.7 -68.46 -2.695
15:18 1021 30.15 850 25.1 23.4 74.1 46 11.2 52.2 -71.6 -2.819
15:19 1021 30.15 851 25.13 23.4 74.1 31 5.7 42.2 -72.2 -2.843
15:20 1021 30.15 851 25.13 23.8 74.8 32 6.4 43.6 -71.7 -2.823
15:21 1021 30.15 851 25.13 23.7 74.7 31 5.6 42.2 -70.4 -2.772
15:22 1021 30.15 850 25.1 23.5 74.3 32 6 42.7 -73 -2.874
15:23 1021 30.15 851 25.13 23.2 73.8 33 6.3 43.3 -74.5 -2.933
15:24 1021 30.15 851 25.13 22.9 73.1 36 7 44.6 -71.5 -2.815
15:25 1022 30.18 851 25.13 22.4 72.2 38 7.4 45.3 -70.4 -2.772
15:26 1022 30.18 851 25.13 22 71.5 39 7.5 45.5 -73.2 -2.882
15:27 1021 30.15 851 25.13 21.7 71.1 39 7.2 44.9 -74.4 -2.929
15:28 1022 30.18 851 25.13 21.5 70.7 41 7.8 46.1 -76.9 -3.028
15:29 1022 30.18 851 25.13 21.2 70.1 43 8.2 46.8 -76 -2.992
15:30 1022 30.18 851 25.13 20.8 69.5 45 8.6 47.4 -76.3 -3.004
15:31 1022 30.18 851 25.13 20.4 68.7 48 9.2 48.5 -75.6 -2.976
15:32 1022 30.18 851 25.13 20 68 50 9.4 48.9 -75.4 -2.969
15:33 1022 30.18 851 25.13 19.6 67.2 54 10.1 50.3 -73.2 -2.882
15:34 1022 30.18 851 25.13 19 66.3 55 9.9 49.9 -71.4 -2.811
15:35 1022 30.18 851 25.13 18.7 65.6 57 10.1 50.1 -72.1 -2.839
15:36 1022 30.18 851 25.13 18.4 65.1 61 10.9 51.6 -72 -2.835
15:37 1022 30.18 851 25.13 18 64.3 62 10.6 51 -72 -2.835
15:38 1022 30.18 852 25.16 17.6 63.7 66 11.2 52.1 -71.8 -2.827
15:39 1023 30.21 852 25.16 17.3 63.1 67 11.2 52.1 -71.9 -2.831
15:40 1023 30.21 852 25.16 17.1 62.8 69 11.3 52.4 -73.1 -2.878
15:41 1023 30.21 852 25.16 16.9 62.4 67 10.9 51.5 -73.9 -2.909
15:42 1023 30.21 853 25.19 16.9 62.4 68 11.1 52 -74.4 -2.929
15:43 1023 30.21 853 25.19 16.8 62.3 69 11.1 52.1 -74.8 -2.945
15:44 1024 30.24 853 25.19 16.8 62.3 68 10.9 51.6 -75.2 -2.961
15:45 1024 30.24 853 25.19 16.9 62.3 65 10.4 50.8 -75.4 -2.969
15:46 1024 30.24 853 25.19 17 62.7 64 10.2 50.3 -75.6 -2.976
15:47 1024 30.24 853 25.19 17.1 62.8 64 10.4 50.6 -75.8 -2.984
15:48 1024 30.24 853 25.19 17.2 63 61 9.8 49.7 -76 -2.992
15:49 1024 30.24 853 25.19 17.4 63.4 58 9.2 48.6 -76 -2.992
15:50 1024 30.24 853 25.19 17.8 64 58 9.5 49 -76.2 -3
15:51 1024 30.24 853 25.19 17.9 64.2 59 9.8 49.7 -76.3 -3.004
15:52 1024 30.24 853 25.19 17.9 64.3 55 8.9 48.1 -76.4 -3.008
15:53 1024 30.24 853 25.19 18.2 64.7 55 9.1 48.4 -76.5 -3.012
15:54 1024 30.24 853 25.19 18.3 64.9 53 8.7 47.6 -76.8 -3.024
15:55 1024 30.24 853 25.19 18.4 65.1 54 9.1 48.3 -77.1 -3.035
15:56 1024 30.24 853 25.19 18.4 65.1 52 8.5 47.3 -77.3 -3.043
15:57 1024 30.24 853 25.19 18.6 65.4 53 8.9 47.9 -77.5 -3.051
15:58 1024 30.24 853 25.19 18.7 65.6 49 7.8 46.1 -77.6 -3.055
15:59 1024 30.24 853 25.19 18.8 65.8 51 8.6 47.5 -77.8 -3.063
16:00 1024 30.24 853 25.19 18.7 65.7 52 8.9 48.1 -77.9 -3.067
16:01 1024 30.24 853 25.19 18.6 65.6 52 8.8 47.9 -78 -3.071
16:02 1023 30.21 853 25.19 18.6 65.6 52 8.7 47.6 -78.1 -3.075
16:03 1023 30.21 853 25.19 18.6 65.5 53 8.9 48 -78.3 -3.083
16:04 1023 30.21 852 25.16 18.5 65.2 54 9 48.2 -78.4 -3.087
16:05 1023 30.21 852 25.16 18.2 64.8 54 9 48.2 -78.5 -3.091
16:06 1023 30.21 852 25.16 18.1 64.6 56 9.3 48.8 -78.6 -3.094
16:07 1023 30.21 852 25.16 17.9 64.2 54 8.6 47.5 -78.7 -3.098
16:08 1023 30.21 852 25.16 17.9 64.3 55 8.9 48 -78.8 -3.102
16:09 1023 30.21 852 25.16 18 64.4 55 9 48.2 -79 -3.11
16:10 1022 30.18 852 25.16 18 64.3 56 9.1 48.4 -79 -3.11
16:11 1022 30.18 851 25.13 17.9 64.1 57 9.3 48.8 -79.2 -3.118
16:12 1022 30.18 851 25.13 17.8 64 61 10.3 50.5 -79.6 -3.134
16:13 1022 30.18 851 25.13 17.4 63.3 63 10.2 50.4 -80 -3.15
16:14 1022 30.18 851 25.13 17.2 62.9 61 9.7 49.4 -80.1 -3.154
16:15 1021 30.15 851 25.13 17.2 63 63 10.1 50.2 -80 -3.15
16:16 1021 30.15 850 25.1 17.1 62.8 62 9.8 49.6 -79.9 -3.146
16:17 1021 30.15 850 25.1 17.1 62.7 61 9.7 49.4 -79.9 -3.146
16:18 1021 30.15 850 25.1 17.2 62.9 60 9.5 49.2 -79.9 -3.146
16:19 1021 30.15 851 25.13 17.4 63.4 59 9.3 48.8 -80 -3.15
16:20 1022 30.18 851 25.13 17.5 63.6 60 9.7 49.4 -80 -3.15
16:21 1022 30.18 851 25.13 17.7 63.8 56 9 48.2 -80.2 -3.157
16:22 1022 30.18 851 25.13 18 64.3 53 8.5 47.3 -80.3 -3.161
16:23 1022 30.18 851 25.13 18.2 64.8 54 8.8 47.9 -80.5 -3.169
16:24 1022 30.18 851 25.13 18.3 64.9 57 9.6 49.3 -80.8 -3.181
16:25 1022 30.18 851 25.13 18.2 64.7 59 10.1 50.2 -81 -3.189
16:26 1022 30.18 851 25.13 18.1 64.5 59 10 50 -81.2 -3.197
16:27 1022 30.18 851 25.13 18 64.4 59 10.1 50.1 -81.4 -3.205
16:28 1022 30.18 851 25.13 18 64.3 60 10.1 50.2 -81.5 -3.209
16:29 1022 30.18 851 25.13 18 64.4 62 10.8 51.4 -81.7 -3.217
16:30 1022 30.18 851 25.13 18 64.4 61 10.5 51 -81.8 -3.22
16:31 1022 30.18 851 25.13 18 64.5 59 9.9 49.8 -81.9 -3.224
16:32 1022 30.18 851 25.13 18.2 64.7 59 10.1 50.1 -82 -3.228
16:33 1022 30.18 851 25.13 18.3 64.9 59 10.2 50.3 -82.1 -3.232
16:34 1022 30.18 851 25.13 18.4 65.1 59 10.5 50.8 -82.2 -3.236
16:35 1022 30.18 851 25.13 18.5 65.2 60 10.8 51.4 -82.3 -3.24
16:36 1022 30.18 851 25.13 18.5 65.3 59 10.3 50.6 -82.4 -3.244
16:37 1022 30.18 851 25.13 18.6 65.4 55 9.5 49.1 -82.4 -3.244
16:38 1022 30.18 851 25.13 18.6 65.5 57 10.1 50.2 -82.5 -3.248
16:39 1022 30.18 851 25.13 18.6 65.5 59 10.6 51 -82.5 -3.248
16:40 1022 30.18 851 25.13 18.7 65.7 55 9.6 49.3 -82.6 -3.252
16:41 1022 30.18 851 25.13 18.9 66 57 10.3 50.6 -82.7 -3.256
16:42 1022 30.18 851 25.13 19 66.3 56 10.1 50.1 -82.7 -3.256
16:43 1022 30.18 851 25.13 19.2 66.5 51 8.8 47.9 -82.7 -3.256
16:44 1022 30.18 851 25.13 19.4 66.8 54 10 50 -82.8 -3.26
16:45 1022 30.18 851 25.13 19.4 66.9 51 9.3 48.7 -82.8 -3.26
16:46 1022 30.18 851 25.13 19.4 66.9 53 9.7 49.5 -82.9 -3.264
16:47 1022 30.18 851 25.13 19.5 67.1 52 9.5 49.1 -82.9 -3.264
16:48 1022 30.18 851 25.13 19.4 67 53 9.6 49.3 -83 -3.268
16:49 1022 30.18 851 25.13 19.4 66.8 53 9.6 49.3 -83 -3.268
16:50 1022 30.18 851 25.13 19.2 66.6 54 9.8 49.7 -83 -3.268
16:51 1022 30.18 851 25.13 19.1 66.4 54 9.8 49.6 -83 -3.268
16:52 1022 30.18 851 25.13 19.1 66.4 56 10.1 50.2 -83 -3.268
16:53 1022 30.18 851 25.13 19.1 66.5 54 9.6 49.3 -83.1 -3.272
16:54 1022 30.18 851 25.13 19.1 66.5 53 9.5 49.2 -83.1 -3.272
16:55 1022 30.18 851 25.13 19.1 66.4 54 9.8 49.7 -83.1 -3.272
16:56 1022 30.18 851 25.13 19.2 66.5 55 10 50.1 -83.2 -3.276
16:57 1022 30.18 851 25.13 19.1 66.3 56 10.1 50.2 -83.2 -3.276
16:58 1022 30.18 851 25.13 19.1 66.3 56 10.2 50.4 -83.2 -3.276
16:59 1022 30.18 851 25.13 19 66.2 56 10.3 50.5 -83.2 -3.276
17:00 1022 30.18 851 25.13 19 66.3 54 9.7 49.5 -83.2 -3.276
17:01 1022 30.18 851 25.13 19 66.3 54 9.5 49.1 -83.2 -3.276
17:02 1022 30.18 851 25.13 19.2 66.5 52 9.2 48.6 -83.2 -3.276
17:03 1021 30.15 851 25.13 19.3 66.7 50 8.8 47.8 -83.3 -3.28
17:04 1022 30.18 851 25.13 19.5 67 51 9.1 48.3 -83.3 -3.28
17:05 1021 30.15 851 25.13 19.5 67.2 48 8.3 47 -83.3 -3.28
17:06 1021 30.15 851 25.13 19.6 67.2 51 9.3 48.8 -83.3 -3.28
17:07 1021 30.15 851 25.13 19.6 67.3 50 9 48.2 -83.3 -3.28
17:08 1021 30.15 851 25.13 19.6 67.2 50 8.9 48 -83.4 -3.283
17:09 1021 30.15 851 25.13 19.6 67.3 51 9.3 48.8 -83.4 -3.283
17:10 1021 30.15 851 25.13 19.6 67.3 53 9.8 49.7 -83.4 -3.283
17:11 1021 30.15 851 25.13 19.6 67.2 50 9.1 48.4 -83.4 -3.283
17:12 1021 30.15 851 25.13 19.6 67.2 50 9 48.2 -83.4 -3.283
17:13 1021 30.15 851 25.13 19.7 67.4 51 9.4 49 -83.4 -3.283
17:14 1021 30.15 851 25.13 19.7 67.4 51 9.5 49.2 -83.4 -3.283
17:15 1021 30.15 851 25.13 19.7 67.5 51 9.4 48.9 -83.4 -3.283
17:16 1021 30.15 850 25.1 19.8 67.6 52 9.7 49.4 -83.4 -3.283
17:17 1021 30.15 851 25.13 19.8 67.7 52 9.8 49.6 -83.4 -3.283
17:18 1021 30.15 851 25.13 19.9 67.7 51 9.5 49.1 -83.4 -3.283
17:19 1021 30.15 851 25.13 20 68 50 9.4 48.9 -83.4 -3.283
17:20 1021 30.15 851 25.13 20.1 68.2 51 9.7 49.4 -83.5 -3.287
17:21 1021 30.15 851 25.13 20.1 68.2 49 9.3 48.8 -83.4 -3.283
17:22 1021 30.15 851 25.13 20.1 68.3 49 9.3 48.8 -83.5 -3.287
17:23 1021 30.15 851 25.13 20.2 68.4 49 9.3 48.7 -83.5 -3.287
17:24 1021 30.15 850 25.1 20.3 68.5 50 9.7 49.5 -83.5 -3.287
17:25 1021 30.15 850 25.1 20.3 68.5 52 10.3 50.5 -83.5 -3.287
17:26 1021 30.15 850 25.1 20.3 68.5 47 8.6 47.5 -83.5 -3.287
17:27 1021 30.15 850 25.1 20.5 68.9 46 8.6 47.5 -83.5 -3.287
17:28 1021 30.15 850 25.1 20.7 69.2 48 9.4 48.9 -83.5 -3.287
17:29 1021 30.15 850 25.1 20.7 69.3 45 8.6 47.5 -83.5 -3.287
17:30 1021 30.15 850 25.1 20.9 69.6 46 8.8 47.9 -83.5 -3.287
17:31 1021 30.15 850 25.1 21 69.7 43 8.1 46.6 -83.5 -3.287
17:32 1021 30.15 850 25.1 21.1 70 43 8.2 46.7 -83.5 -3.287
17:33 1021 30.15 850 25.1 21.2 70.1 46 9.3 48.7 -83.5 -3.287
17:34 1021 30.15 850 25.1 21.1 70.1 42 7.9 46.2 -83.5 -3.287
17:35 1021 30.15 850 25.1 21.2 70.2 43 8.3 46.9 -83.5 -3.287
17:36 1021 30.15 850 25.1 21.4 70.4 43 8.4 47.1 -83.5 -3.287
17:37 1021 30.15 850 25.1 21.4 70.6 40 7.5 45.6 -83.5 -3.287
17:38 1021 30.15 850 25.1 21.6 70.8 42 8.2 46.8 -83.5 -3.287
17:39 1021 30.15 850 25.1 21.6 70.8 43 8.5 47.2 -83.5 -3.287
17:40 1021 30.15 850 25.1 21.5 70.6 47 9.7 49.5 -83.5 -3.287
17:41 1021 30.15 850 25.1 21.4 70.5 45 9.1 48.3 -83.5 -3.287
17:42 1021 30.15 850 25.1 21.3 70.4 44 8.7 47.7 -83.5 -3.287
17:43 1021 30.15 850 25.1 21.4 70.5 46 9.6 49.2 -83.5 -3.287
17:44 1021 30.15 850 25.1 21.4 70.5 46 9.5 49 -83.5 -3.287
17:45 1021 30.15 850 25.1 21.5 70.6 45 9.1 48.4 -83.5 -3.287
17:46 1021 30.15 850 25.1 21.6 70.8 45 9.3 48.8 -83.5 -3.287
17:47 1021 30.15 850 25.1 21.7 71.1 45 9.5 49.1 -83.5 -3.287
17:48 1021 30.15 850 25.1 21.8 71.3 42 8.3 47 -83.5 -3.287
17:49 1021 30.15 850 25.1 22 71.6 40 7.9 46.2 -83.4 -3.283
17:50 1021 30.15 850 25.1 22.2 71.9 41 8.4 47.1 -83.4 -3.283
17:51 1021 30.15 850 25.1 22.3 72.1 40 8.4 47.1 -83.4 -3.283
17:52 1021 30.15 850 25.1 22.4 72.4 40 8.3 46.9 -83.4 -3.283
17:53 1021 30.15 850 25.1 22.6 72.6 38 7.6 45.8 -83.4 -3.283
17:54 1021 30.15 850 25.1 22.8 73 41 9.1 48.3 -83.4 -3.283
17:55 1021 30.15 850 25.1 22.8 73.1 40 8.8 47.9 -83.4 -3.283
17:56 1021 30.15 850 25.1 22.9 73.3 40 9 48.1 -83.3 -3.28
17:57 1021 30.15 850 25.1 22.9 73.3 36 7.3 45.1 -83.3 -3.28
17:58 1021 30.15 850 25.1 22.9 73.3 35 7 44.6 -83.3 -3.28
17:59 1021 30.15 850 25.1 22.9 73.2 34 6.3 43.3 -83.3 -3.28
18:00 1021 30.15 850 25.1 22.9 73.3 34 6.6 43.9 -83.3 -3.28
18:01 1021 30.15 850 25.1 22.9 73.3 36 7.2 44.9 -83.2 -3.276
18:02 1021 30.15 850 25.1 23 73.4 39 8.4 47.1 -83.2 -3.276
18:03 1021 30.15 850 25.1 23.1 73.6 36 7.5 45.4 -83.2 -3.276
18:04 1021 30.15 850 25.1 23.1 73.6 37 7.9 46.2 -83.2 -3.276
18:05 1021 30.15 850 25.1 23.1 73.5 33 6.2 43.1 -83.2 -3.276
18:06 1021 30.15 850 25.1 23 73.4 35 7.1 44.7 -83.1 -3.272
18:07 1021 30.15 850 25.1 22.9 73.1 36 7.4 45.3 -83.1 -3.272
18:08 1021 30.15 850 25.1 22.9 73.2 34 6.4 43.6 -83.1 -3.272
18:09 1021 30.15 850 25.1 22.9 73.3 35 6.7 44.1 -83.1 -3.272
18:10 1021 30.15 850 25.1 22.9 73.3 35 7 44.6 -83 -3.268
18:11 1021 30.15 850 25.1 22.9 73.2 34 6.6 43.8 -83 -3.268
18:12 1021 30.15 850 25.1 22.9 73.3 35 6.9 44.3 -83 -3.268
18:13 1021 30.15 850 25.1 22.9 73.3 35 6.9 44.5 -83 -3.268
18:14 1021 30.15 850 25.1 22.9 73.2 36 7.3 45.2 -83 -3.268
18:15 1021 30.15 850 25.1 22.8 73 38 7.8 46.1 -83 -3.268
18:16 1021 30.15 850 25.1 22.8 73 35 6.8 44.3 -83 -3.268
18:17 1021 30.15 850 25.1 22.8 73 36 7.1 44.7 -83 -3.268
18:18 1021 30.15 850 25.1 22.8 73 36 7 44.6 -82.9 -3.264
18:19 1021 30.15 850 25.1 22.8 73.1 37 7.4 45.4 -82.9 -3.264
18:20 1021 30.15 850 25.1 22.8 73.1 36 7.3 45.2 -82.9 -3.264
18:21 1021 30.15 850 25.1 22.8 73.1 38 7.8 46 -82.9 -3.264
18:22 1021 30.15 850 25.1 22.8 73 38 7.8 46.1 -82.9 -3.264
18:23 1021 30.15 850 25.1 22.7 72.9 38 7.8 46 -82.9 -3.264
18:24 1021 30.15 850 25.1 22.8 73 37 7.4 45.3 -82.8 -3.26
18:25 1021 30.15 850 25.1 22.8 73 37 7.5 45.5 -82.8 -3.26
18:26 1021 30.15 850 25.1 22.8 73.1 38 7.8 46.1 -82.8 -3.26
18:27 1021 30.15 850 25.1 22.8 73.1 37 7.6 45.7 -82.8 -3.26
18:28 1021 30.15 850 25.1 22.8 73.1 38 7.8 46 -82.8 -3.26
18:29 1021 30.15 850 25.1 22.8 73 37 7.5 45.5 -82.8 -3.26
18:30 1021 30.15 850 25.1 22.7 72.9 37 7.3 45.1 -82.8 -3.26
18:31 1021 30.15 850 25.1 22.6 72.8 40 8.4 47.1 -82.8 -3.26
18:32 1021 30.15 850 25.1 22.5 72.5 39 8 46.4 -82.8 -3.26
18:33 1021 30.15 850 25.1 22.3 72.2 41 8.7 47.6 -82.8 -3.26
18:34 1021 30.15 850 25.1 22.2 71.9 39 7.9 46.2 -82.8 -3.26
18:35 1021 30.15 850 25.1 22.1 71.9 40 8.1 46.5 -82.8 -3.26
18:36 1021 30.15 850 25.1 22 71.7 40 8.1 46.6 -82.8 -3.26
18:37 1021 30.15 850 25.1 22 71.5 41 8.2 46.8 -82.8 -3.26
18:38 1021 30.15 850 25.1 21.9 71.3 41 8.1 46.5 -82.8 -3.26
18:39 1021 30.15 850 25.1 21.9 71.3 40 7.7 45.8 -82.8 -3.26
18:40 1021 30.15 850 25.1 21.8 71.3 40 7.9 46.1 -82.8 -3.26
18:41 1021 30.15 850 25.1 21.8 71.3 41 8.2 46.7 -82.8 -3.26
18:42 1021 30.15 850 25.1 21.8 71.2 41 8 46.4 -82.8 -3.26
18:43 1021 30.15 850 25.1 21.8 71.2 42 8.3 47 -82.8 -3.26
18:44 1021 30.15 850 25.1 21.8 71.2 41 8 46.4 -82.8 -3.26
18:45 1021 30.15 850 25.1 21.8 71.2 42 8.3 46.9 -82.8 -3.26
18:46 1021 30.15 850 25.1 21.8 71.2 40 7.8 46.1 -82.8 -3.26
18:47 1021 30.15 850 25.1 21.7 71.1 43 8.9 48 -82.8 -3.26
18:48 1021 30.15 850 25.1 21.7 71.1 38 7 44.6 -82.8 -3.26
18:49 1021 30.15 850 25.1 21.8 71.2 41 8.1 46.5 -82.9 -3.264
18:50 1021 30.15 850 25.1 21.8 71.3 40 7.9 46.3 -82.9 -3.264
18:51 1021 30.15 850 25.1 21.8 71.3 41 8.2 46.7 -82.9 -3.264
18:52 1021 30.15 850 25.1 21.8 71.2 41 8.1 46.6 -82.9 -3.264
18:53 1021 30.15 850 25.1 21.7 71.1 41 8 46.4 -82.9 -3.264
18:54 1021 30.15 850 25.1 21.6 71 42 8.3 47 -82.9 -3.264
18:55 1021 30.15 850 25.1 21.6 70.9 43 8.6 47.4 -82.9 -3.264
18:56 1021 30.15 850 25.1 21.5 70.7 40 7.7 45.8 -82.9 -3.264
18:57 1021 30.15 850 25.1 21.5 70.6 44 9 48.2 -83 -3.268
18:58 1021 30.15 850 25.1 21.3 70.4 45 9 48.3 -83 -3.268
18:59 1021 30.15 850 25.1 21.2 70.2 45 8.9 47.9 -83 -3.268
19:00 1021 30.15 850 25.1 21.2 70.1 44 8.7 47.7 -83 -3.268
19:01 1021 30.15 850 25.1 21.1 70 46 9.3 48.8 -83 -3.268
19:02 1021 30.15 850 25.1 21 69.7 48 9.6 49.4 -83 -3.268
19:03 1021 30.15 850 25.1 20.9 69.5 46 9 48.2 -83 -3.268
19:04 1021 30.15 850 25.1 20.8 69.4 46 8.8 47.9 -83 -3.268
19:05 1021 30.15 850 25.1 20.8 69.4 46 9 48.2 -83 -3.268
19:06 1021 30.15 850 25.1 20.8 69.4 47 9.1 48.4 -83 -3.268
19:07 1021 30.15 850 25.1 20.8 69.5 45 8.8 47.8 -83.1 -3.272
19:08 1021 30.15 850 25.1 20.8 69.5 45 8.6 47.5 -83.1 -3.272
19:09 1021 30.15 850 25.1 20.8 69.5 46 8.8 47.9 -83.1 -3.272
19:10 1021 30.15 850 25.1 20.7 69.3 47 9.2 48.6 -83.1 -3.272
19:11 1021 30.15 850 25.1 20.7 69.2 47 9 48.2 -83.1 -3.272
19:12 1021 30.15 850 25.1 20.6 69 48 9.2 48.6 -83.1 -3.272
19:13 1021 30.15 850 25.1 20.4 68.8 47 9 48.2 -83.2 -3.276
19:14 1021 30.15 850 25.1 20.4 68.8 47 8.9 48.1 -83.2 -3.276
19:15 1021 30.15 850 25.1 20.5 68.9 43 7.8 46 -83.2 -3.276
19:16 1021 30.15 850 25.1 20.7 69.3 42 7.5 45.5 -83.2 -3.276
19:17 1021 30.15 850 25.1 21 69.8 44 8.4 47 -83.2 -3.276
19:18 1021 30.15 850 25.1 21.1 69.9 42 8 46.4 -83.2 -3.276
19:19 1021 30.15 850 25.1 21 69.8 44 8.4 47 -83.3 -3.28
19:20 1021 30.15 850 25.1 20.9 69.7 44 8.5 47.3 -83.3 -3.28
19:21 1021 30.15 850 25.1 20.8 69.5 46 8.8 47.9 -83.3 -3.28
19:22 1021 30.15 850 25.1 20.7 69.3 47 9.2 48.6 -83.4 -3.283
19:23 1021 30.15 850 25.1 20.5 69 49 9.6 49.2 -83.4 -3.283
19:24 1021 30.15 850 25.1 20.3 68.5 50 9.7 49.5 -83.4 -3.283
19:25 1021 30.15 850 25.1 20.1 68.2 48 8.8 47.8 -83.4 -3.283
19:26 1021 30.15 850 25.1 20.1 68.1 48 8.9 47.9 -83.4 -3.283
19:27 1021 30.15 850 25.1 20 68 50 9.5 49.1 -83.4 -3.283
19:28 1021 30.15 850 25.1 19.8 67.6 54 10.3 50.6 -83.4 -3.283
19:29 1020 30.12 850 25.1 19.5 67.1 55 10.4 50.8 -83.4 -3.283
19:30 1020 30.12 850 25.1 19.2 66.6 57 10.5 51 -83.4 -3.283
19:31 1020 30.12 850 25.1 19.1 66.3 53 9.4 48.9 -83.4 -3.283
19:32 1020 30.12 849 25.07 19.2 66.5 51 8.8 47.9 -83.4 -3.283
19:33 1020 30.12 849 25.07 19.4 66.9 52 9.3 48.8 -83.5 -3.287
19:34 1020 30.12 849 25.07 19.4 66.9 56 10.6 51.1 -83.5 -3.287
19:35 1020 30.12 849 25.07 19.2 66.5 56 10.3 50.6 -83.5 -3.287
19:36 1020 30.12 849 25.07 19 66.2 56 10.1 50.3 -83.5 -3.287
19:37 1020 30.12 849 25.07 18.9 66 57 10.3 50.5 -83.6 -3.291
19:38 1020 30.12 849 25.07 18.9 65.9 55 9.8 49.6 -83.6 -3.291
19:39 1020 30.12 849 25.07 19 66.1 49 8.1 46.7 -83.6 -3.291
19:40 1020 30.12 849 25.07 19.3 66.8 51 9 48.2 -83.6 -3.291
19:41 1020 30.12 849 25.07 19.5 67.1 50 8.9 48.1 -83.6 -3.291
19:42 1020 30.12 849 25.07 19.5 67.1 51 9.1 48.4 -83.7 -3.295
19:43 1020 30.12 849 25.07 19.5 67 49 8.5 47.2 -83.7 -3.295
19:44 1020 30.12 849 25.07 19.4 67 49 8.7 47.7 -83.8 -3.299
19:45 1020 30.12 849 25.07 19.4 66.9 50 8.8 47.9 -83.8 -3.299
19:46 1020 30.12 849 25.07 19.2 66.6 51 9.1 48.3 -83.8 -3.299
19:47 1020 30.12 849 25.07 19.1 66.3 52 9.2 48.6 -83.8 -3.299
19:48 1020 30.12 849 25.07 18.9 66 53 9.2 48.6 -83.9 -3.303
19:49 1020 30.12 849 25.07 18.7 65.7 53 9.1 48.3 -83.9 -3.303
19:50 1020 30.12 850 25.1 18.7 65.7 53 9.2 48.5 -83.9 -3.303
19:51 1020 30.12 850 25.1 18.5 65.4 54 9.2 48.6 -83.9 -3.303
19:52 1020 30.12 850 25.1 18.4 65.2 52 8.4 47.2 -84 -3.307
19:53 1020 30.12 850 25.1 18.4 65.2 53 8.8 47.8 -84 -3.307
19:54 1020 30.12 850 25.1 18.5 65.4 53 8.8 47.9 -84 -3.307
19:55 1020 30.12 850 25.1 18.5 65.3 54 9.2 48.5 -84 -3.307
19:56 1020 30.12 850 25.1 18.4 65.1 54 9.1 48.3 -84.1 -3.311
19:57 1020 30.12 850 25.1 18.3 64.9 54 8.9 48 -84.1 -3.311
19:58 1020 30.12 850 25.1 18.5 65.2 52 8.6 47.4 -84.1 -3.311
19:59 1020 30.12 850 25.1 18.6 65.4 51 8.4 47 -84.1 -3.311
20:00 1020 30.12 850 25.1 18.6 65.6 51 8.5 47.4 -84.2 -3.315
20:01 1020 30.12 850 25.1 18.7 65.7 50 8.3 46.9 -84.2 -3.315
20:02 1020 30.12 849 25.07 18.9 66 51 8.8 47.8 -84.2 -3.315
20:03 1020 30.12 849 25.07 18.8 65.8 51 8.6 47.6 -84.2 -3.315
20:04 1020 30.12 849 25.07 18.7 65.7 51 8.5 47.3 -84.3 -3.319
20:05 1020 30.12 849 25.07 18.8 65.8 50 8.3 46.9 -84.3 -3.319
20:06 1020 30.12 849 25.07 18.8 65.9 52 8.9 48 -84.3 -3.319
20:07 1020 30.12 849 25.07 18.9 65.9 52 8.9 48 -84.3 -3.319
20:08 1020 30.12 849 25.07 18.8 65.8 52 8.9 48.1 -84.4 -3.323
20:09 1020 30.12 849 25.07 18.7 65.6 51 8.5 47.3 -84.4 -3.323
20:10 1020 30.12 849 25.07 18.7 65.7 52 8.8 47.8 -84.4 -3.323
20:11 1020 30.12 849 25.07 18.6 65.5 52 8.7 47.6 -84.5 -3.327
20:12 1020 30.12 849 25.07 18.5 65.3 53 8.8 47.8 -84.5 -3.327
20:13 1020 30.12 849 25.07 18.4 65.1 53 8.8 47.8 -84.5 -3.327
20:14 1020 30.12 849 25.07 18.4 65 53 8.7 47.7 -84.5 -3.327
20:15 1020 30.12 849 25.07 18.3 64.9 53 8.7 47.7 -84.5 -3.327
20:16 1020 30.12 849 25.07 18.2 64.7 51 7.9 46.3 -84.5 -3.327
20:17 1020 30.12 849 25.07 18.3 64.9 51 8.2 46.7 -84.6 -3.331
20:18 1020 30.12 850 25.1 18.5 65.2 51 8.2 46.8 -84.6 -3.331
20:19 1020 30.12 849 25.07 18.5 65.3 50 8 46.3 -84.6 -3.331
20:20 1020 30.12 849 25.07 18.6 65.5 48 7.6 45.8 -84.7 -3.335
20:21 1020 30.12 850 25.1 18.9 65.9 47 7.5 45.4 -84.7 -3.335
20:22 1020 30.12 850 25.1 19 66.2 47 7.7 45.9 -84.7 -3.335
20:23 1020 30.12 850 25.1 18.8 65.8 51 8.5 47.3 -84.7 -3.335
20:24 1020 30.12 850 25.1 18.3 64.9 53 8.6 47.5 -84.7 -3.335
20:25 1020 30.12 850 25.1 17.8 64 53 8.1 46.7 -84.7 -3.335
20:26 1020 30.12 850 25.1 17.6 63.8 52 7.8 46.1 -84.8 -3.339
20:27 1020 30.12 850 25.1 17.7 63.8 50 7.2 44.9 -84.8 -3.339
20:28 1020 30.12 850 25.1 17.9 64.3 47 6.6 43.9 -84.8 -3.339
20:29 1020 30.12 850 25.1 18.4 65.1 47 7 44.6 -84.8 -3.339
20:30 1020 30.12 850 25.1 18.6 65.5 45 6.7 44.1 -84.8 -3.339
20:31 1020 30.12 850 25.1 18.7 65.7 44 6.5 43.7 -84.9 -3.343
20:32 1020 30.12 850 25.1 18.9 66.1 44 6.5 43.7 -84.9 -3.343
20:33 1020 30.12 850 25.1 19.2 66.5 44 6.7 44 -84.9 -3.343
20:34 1020 30.12 850 25.1 19.3 66.7 43 6.7 44 -84.9 -3.343
20:35 1020 30.12 850 25.1 19.3 66.7 44 6.8 44.2 -85 -3.346
20:36 1020 30.12 850 25.1 19.3 66.7 44 6.9 44.5 -85 -3.346
20:37 1020 30.12 850 25.1 19.2 66.6 44 6.9 44.4 -85 -3.346
20:38 1020 30.12 850 25.1 19.2 66.6 45 7.1 44.7 -85 -3.346
20:39 1020 30.12 850 25.1 19 66.3 45 7 44.6 -85 -3.346
20:40 1020 30.12 850 25.1 18.9 66 46 7.1 44.8 -85 -3.346
20:41 1020 30.12 850 25.1 18.8 65.8 46 7.1 44.8 -85.1 -3.35
20:42 1020 30.12 850 25.1 18.6 65.6 46 7.1 44.7 -85.1 -3.35
20:43 1020 30.12 850 25.1 18.6 65.6 47 7.2 44.9 -85.1 -3.35
20:44 1020 30.12 850 25.1 18.5 65.3 47 7.2 44.9 -85.1 -3.35
20:45 1020 30.12 850 25.1 18.3 64.9 49 7.4 45.4 -85.1 -3.35
20:46 1020 30.12 850 25.1 18 64.5 50 7.5 45.4 -85.1 -3.35
20:47 1020 30.12 850 25.1 17.8 64 51 7.6 45.7 -85.1 -3.35
20:48 1020 30.12 850 25.1 17.5 63.5 52 7.8 46 -85.1 -3.35
20:49 1020 30.12 850 25.1 17.2 62.9 53 7.7 45.9 -85.2 -3.354
20:50 1020 30.12 850 25.1 17 62.5 54 7.6 45.7 -85.2 -3.354
20:51 1020 30.12 850 25.1 16.9 62.3 54 7.7 45.8 -85.2 -3.354
20:52 1020 30.12 850 25.1 16.7 62.1 54 7.5 45.6 -85.2 -3.354
20:53 1020 30.12 850 25.1 16.7 62.1 55 7.8 46 -85.2 -3.354
20:54 1021 30.15 850 25.1 16.6 61.8 56 7.7 45.9 -85.2 -3.354
20:55 1021 30.15 850 25.1 16.5 61.6 56 7.7 45.8 -85.2 -3.354
20:56 1021 30.15 850 25.1 16.5 61.7 55 7.6 45.6 -85.2 -3.354
20:57 1021 30.15 850 25.1 16.5 61.8 55 7.6 45.8 -85.2 -3.354
20:58 1021 30.15 850 25.1 16.5 61.7 55 7.7 45.8 -85.3 -3.358
20:59 1021 30.15 850 25.1 16.5 61.6 55 7.6 45.6 -85.3 -3.358
21:00 1021 30.15 850 25.1 16.6 61.8 55 7.5 45.4 -85.3 -3.358
21:01 1021 30.15 850 25.1 16.8 62.2 54 7.5 45.5 -85.3 -3.358
21:02 1021 30.15 850 25.1 16.9 62.4 53 7.5 45.5 -85.3 -3.358
21:03 1021 30.15 850 25.1 17 62.6 53 7.5 45.6 -85.4 -3.362
21:04 1021 30.15 850 25.1 17 62.7 54 7.7 45.8 -85.4 -3.362
21:05 1021 30.15 850 25.1 17 62.6 55 8 46.4 -85.4 -3.362
21:06 1021 30.15 850 25.1 16.8 62.3 55 7.9 46.3 -85.4 -3.362
21:07 1021 30.15 850 25.1 16.6 62 57 8.1 46.6 -85.4 -3.362
21:08 1021 30.15 850 25.1 16.4 61.6 56 7.7 45.8 -85.4 -3.362
21:09 1021 30.15 850 25.1 16.4 61.6 56 7.8 46 -85.4 -3.362
21:10 1021 30.15 850 25.1 16.4 61.5 57 7.9 46.2 -85.5 -3.366
21:11 1021 30.15 850 25.1 16.4 61.5 56 7.7 45.8 -85.5 -3.366
21:12 1021 30.15 850 25.1 16.5 61.8 55 7.5 45.5 -85.5 -3.366
21:13 1021 30.15 850 25.1 16.7 62.1 54 7.5 45.5 -85.5 -3.366
21:14 1021 30.15 850 25.1 16.7 62.1 55 7.6 45.7 -85.5 -3.366
21:15 1021 30.15 850 25.1 16.6 61.8 55 7.7 45.8 -85.6 -3.37
21:16 1021 30.15 850 25.1 16.5 61.6 56 7.8 46.1 -85.6 -3.37
21:17 1021 30.15 850 25.1 16.4 61.5 56 7.8 46 -85.6 -3.37
21:18 1021 30.15 850 25.1 16.4 61.5 55 7.5 45.5 -85.6 -3.37
21:19 1021 30.15 850 25.1 16.4 61.5 55 7.5 45.5 -85.6 -3.37
21:20 1021 30.15 850 25.1 16.4 61.6 55 7.6 45.6 -85.6 -3.37
21:21 1021 30.15 850 25.1 16.4 61.5 55 7.5 45.5 -85.7 -3.374
21:22 1021 30.15 850 25.1 16.4 61.5 55 7.5 45.6 -85.7 -3.374
21:23 1021 30.15 850 25.1 16.4 61.4 56 7.5 45.6 -85.7 -3.374
21:24 1021 30.15 850 25.1 16.3 61.4 56 7.6 45.7 -85.7 -3.374
21:25 1021 30.15 850 25.1 16.2 61.2 56 7.5 45.5 -85.7 -3.374
21:26 1021 30.15 850 25.1 16.2 61.1 56 7.4 45.4 -85.7 -3.374
21:27 1021 30.15 850 25.1 16.2 61.2 56 7.6 45.6 -85.8 -3.378
21:28 1021 30.15 850 25.1 16.2 61.1 56 7.6 45.6 -85.8 -3.378
21:29 1021 30.15 850 25.1 16.1 61.1 56 7.5 45.5 -85.8 -3.378
21:30 1021 30.15 850 25.1 16.1 61 57 7.6 45.6 -85.8 -3.378
21:31 1021 30.15 850 25.1 16.1 60.9 57 7.5 45.6 -85.8 -3.378
21:32 1021 30.15 850 25.1 16 60.9 56 7.4 45.3 -85.8 -3.378
21:33 1021 30.15 850 25.1 16.2 61.1 56 7.4 45.3 -85.9 -3.382
21:34 1021 30.15 850 25.1 16.1 61 56 7.5 45.5 -85.9 -3.382
21:35 1021 30.15 850 25.1 16.2 61.1 56 7.5 45.5 -85.9 -3.382
21:36 1021 30.15 850 25.1 16.1 60.9 56 7.4 45.4 -85.9 -3.382
21:37 1021 30.15 850 25.1 16.1 61 56 7.3 45.2 -86 -3.386
21:38 1021 30.15 850 25.1 16.2 61.1 55 7.3 45.1 -86 -3.386
21:39 1021 30.15 850 25.1 16.3 61.3 55 7.4 45.3 -86 -3.386
21:40 1021 30.15 850 25.1 16.3 61.4 55 7.3 45.2 -86 -3.386
21:41 1021 30.15 850 25.1 16.4 61.5 55 7.4 45.3 -86 -3.386
21:42 1021 30.15 850 25.1 16.4 61.6 55 7.3 45.2 -86 -3.386
21:43 1021 30.15 850 25.1 16.5 61.7 54 7.3 45.1 -86 -3.386
21:44 1021 30.15 850 25.1 16.6 61.8 54 7.4 45.3 -86.1 -3.39
21:45 1021 30.15 850 25.1 16.6 61.9 53 7.2 45 -86.1 -3.39
21:46 1021 30.15 850 25.1 16.9 62.4 51 6.8 44.2 -86.1 -3.39
21:47 1021 30.15 850 25.1 17.3 63.1 51 7.2 44.9 -86.1 -3.39
21:48 1021 30.15 850 25.1 17.4 63.2 50 7 44.7 -86.1 -3.39
21:49 1021 30.15 850 25.1 17.5 63.4 50 7 44.5 -86.1 -3.39
21:50 1021 30.15 850 25.1 17.5 63.5 50 7.2 44.9 -86.1 -3.39
21:51 1021 30.15 850 25.1 17.4 63.4 52 7.5 45.5 -86.1 -3.39
21:52 1021 30.15 850 25.1 17.2 63 53 7.5 45.6 -86.1 -3.39
21:53 1021 30.15 850 25.1 17 62.7 53 7.4 45.2 -86.1 -3.39
21:54 1021 30.15 850 25.1 17 62.6 52 7.2 45 -86.1 -3.39
21:55 1021 30.15 850 25.1 17.1 62.7 51 7.1 44.8 -86.1 -3.39
21:56 1021 30.15 850 25.1 17.2 62.9 52 7.3 45.2 -86.1 -3.39
21:57 1021 30.15 850 25.1 17.2 62.9 51 7.1 44.7 -86.1 -3.39
21:58 1021 30.15 850 25.1 17.3 63.1 51 7.2 45 -86.1 -3.39
21:59 1021 30.15 850 25.1 17.2 63 52 7.3 45.1 -86.1 -3.39
22:00 1021 30.15 850 25.1 17.1 62.9 51 7.2 44.9 -86.1 -3.39
22:01 1021 30.15 850 25.1 17.1 62.8 53 7.5 45.5 -86.1 -3.39
22:02 1021 30.15 850 25.1 17 62.7 52 7.2 45 -86.1 -3.39
22:03 1021 30.15 850 25.1 17 62.6 51 7 44.5 -86.1 -3.39
22:04 1021 30.15 850 25.1 17.1 62.9 51 7.1 44.9 -86.1 -3.39
22:05 1021 30.15 850 25.1 17.2 63 50 6.9 44.5 -86.1 -3.39
22:06 1021 30.15 850 25.1 17.3 63.1 49 6.6 43.8 -86.1 -3.39
22:07 1021 30.15 850 25.1 17.5 63.6 49 6.8 44.2 -86.1 -3.39
22:08 1021 30.15 850 25.1 17.6 63.7 49 6.9 44.4 -86.1 -3.39
22:09 1021 30.15 850 25.1 17.6 63.8 49 7 44.6 -86.1 -3.39
22:10 1021 30.15 850 25.1 17.6 63.6 50 7.1 44.7 -86.1 -3.39
22:11 1021 30.15 850 25.1 17.5 63.4 51 7.3 45.1 -86.1 -3.39
22:12 1021 30.15 850 25.1 17.3 63.1 51 7.1 44.8 -86.1 -3.39
22:13 1021 30.15 850 25.1 17.2 62.9 52 7.2 45 -86.1 -3.39
22:14 1021 30.15 850 25.1 17 62.7 52 7.2 45 -86.1 -3.39
22:15 1021 30.15 850 25.1 16.9 62.5 52 7.2 44.9 -86.2 -3.394
22:16 1021 30.15 850 25.1 16.9 62.4 52 7.1 44.9 -86.2 -3.394
22:17 1021 30.15 850 25.1 16.9 62.3 52 7 44.6 -86.2 -3.394
22:18 1021 30.15 850 25.1 16.9 62.4 51 6.8 44.3 -86.2 -3.394
22:19 1021 30.15 850 25.1 16.9 62.4 52 7 44.6 -86.2 -3.394
22:20 1021 30.15 850 25.1 16.9 62.3 52 7 44.6 -86.2 -3.394
22:21 1021 30.15 850 25.1 16.9 62.4 52 7 44.7 -86.2 -3.394
22:22 1021 30.15 850 25.1 16.9 62.3 53 7.2 45 -86.2 -3.394
22:23 1021 30.15 850 25.1 16.7 62 54 7.3 45.2 -86.2 -3.394
22:24 1021 30.15 850 25.1 16.4 61.5 54 7.1 44.8 -86.2 -3.394
22:25 1021 30.15 850 25.1 16.4 61.5 53 6.9 44.5 -86.2 -3.394
22:26 1021 30.15 850 25.1 16.4 61.5 53 7 44.5 -86.2 -3.394
22:27 1021 30.15 850 25.1 16.4 61.4 54 7.1 44.7 -86.2 -3.394
22:28 1021 30.15 850 25.1 16.3 61.3 54 7 44.6 -86.2 -3.394
22:29 1021 30.15 850 25.1 16.3 61.4 54 7.1 44.7 -86.2 -3.394
22:30 1021 30.15 850 25.1 16.2 61.2 54 7.1 44.7 -86.3 -3.398
22:31 1021 30.15 850 25.1 16.1 61.1 55 7.2 44.9 -86.3 -3.398
22:32 1021 30.15 850 25.1 16.1 60.9 55 7.1 44.8 -86.3 -3.398
22:33 1021 30.15 850 25.1 16.1 60.9 55 7.2 44.9 -86.3 -3.398
22:34 1021 30.15 850 25.1 15.9 60.7 55 7.1 44.8 -86.3 -3.398
22:35 1021 30.15 850 25.1 16 60.7 55 7 44.5 -86.3 -3.398
22:36 1021 30.15 850 25.1 16.1 61 55 7.1 44.8 -86.3 -3.398
22:37 1021 30.15 850 25.1 16.1 60.9 55 7 44.7 -86.3 -3.398
22:38 1021 30.15 850 25.1 16 60.7 56 7.2 44.9 -86.3 -3.398
22:39 1021 30.15 850 25.1 15.8 60.5 56 7.1 44.8 -86.3 -3.398
22:40 1021 30.15 850 25.1 15.7 60.2 57 7.2 44.9 -86.3 -3.398
22:41 1021 30.15 850 25.1 15.5 59.9 57 7.2 44.9 -86.3 -3.398
22:42 1021 30.15 850 25.1 15.4 59.7 58 7.2 45 -86.3 -3.398
22:43 1021 30.15 850 25.1 15.3 59.5 58 7.1 44.8 -86.3 -3.398
22:44 1021 30.15 850 25.1 15.3 59.5 58 7.1 44.8 -86.3 -3.398
22:45 1021 30.15 850 25.1 15.3 59.5 58 7.3 45.1 -86.4 -3.402
22:46 1021 30.15 850 25.1 15.3 59.5 58 7.2 44.9 -86.4 -3.402
22:47 1021 30.15 850 25.1 15.2 59.4 58 7.1 44.7 -86.4 -3.402
22:48 1021 30.15 850 25.1 15.3 59.6 57 7 44.6 -86.4 -3.402
22:49 1021 30.15 850 25.1 15.5 59.8 56 6.9 44.4 -86.4 -3.402
22:50 1021 30.15 850 25.1 15.6 60.2 56 6.9 44.5 -86.4 -3.402
22:51 1021 30.15 850 25.1 15.7 60.3 56 7 44.5 -86.4 -3.402
22:52 1021 30.15 850 25.1 15.9 60.5 54 6.8 44.2 -86.5 -3.406
22:53 1021 30.15 850 25.1 16 60.8 55 6.9 44.5 -86.5 -3.406
22:54 1021 30.15 850 25.1 16 60.8 55 7 44.6 -86.5 -3.406
22:55 1021 30.15 850 25.1 16 60.7 56 7.2 44.9 -86.5 -3.406
22:56 1021 30.15 850 25.1 15.9 60.7 55 7 44.6 -86.5 -3.406
22:57 1021 30.15 850 25.1 16 60.7 54 6.9 44.4 -86.5 -3.406
22:58 1021 30.15 850 25.1 16 60.8 54 6.8 44.2 -86.5 -3.406
22:59 1021 30.15 850 25.1 16.1 61.1 53 6.6 44 -86.5 -3.406
23:00 1021 30.15 850 25.1 16.3 61.3 53 6.7 44.1 -86.5 -3.406
23:01 1021 30.15 850 25.1 16.3 61.4 53 6.8 44.3 -86.5 -3.406
23:02 1021 30.15 850 25.1 16.3 61.3 53 6.9 44.3 -86.5 -3.406
23:03 1021 30.15 850 25.1 16.3 61.3 53 6.9 44.3 -86.5 -3.406
23:04 1021 30.15 850 25.1 16.3 61.3 54 6.9 44.5 -86.5 -3.406
23:05 1021 30.15 850 25.1 16.2 61.2 54 7 44.6 -86.5 -3.406
23:06 1021 30.15 850 25.1 16.2 61.2 54 7.1 44.9 -86.5 -3.406
23:07 1021 30.15 850 25.1 16.2 61.1 54 7 44.6 -86.5 -3.406
23:08 1021 30.15 850 25.1 16.2 61.1 54 6.9 44.4 -86.5 -3.406
23:09 1021 30.15 850 25.1 16.2 61.1 54 7 44.6 -86.4 -3.402
23:10 1021 30.15 850 25.1 16.1 61.1 54 6.8 44.3 -86.4 -3.402
23:11 1021 30.15 850 25.1 16.2 61.1 54 7 44.6 -86.4 -3.402
23:12 1021 30.15 850 25.1 16.2 61.2 54 6.9 44.4 -86.4 -3.402
23:13 1021 30.15 850 25.1 16.2 61.2 53 6.9 44.4 -86.4 -3.402
23:14 1021 30.15 850 25.1 16.2 61.2 53 6.7 44 -86.5 -3.406
23:15 1021 30.15 850 25.1 16.3 61.3 54 7 44.6 -86.5 -3.406
23:16 1021 30.15 850 25.1 16.3 61.3 54 7 44.7 -86.5 -3.406
23:17 1021 30.15 850 25.1 16.2 61.2 53 6.8 44.3 -86.5 -3.406
23:18 1021 30.15 850 25.1 16.3 61.4 52 6.5 43.8 -86.5 -3.406
23:19 1021 30.15 850 25.1 16.5 61.7 52 6.6 43.9 -86.5 -3.406
23:20 1021 30.15 850 25.1 16.6 62 51 6.5 43.7 -86.5 -3.406
23:21 1021 30.15 850 25.1 16.7 62.1 51 6.7 44.1 -86.5 -3.406
23:22 1021 30.15 850 25.1 16.7 62.1 51 6.8 44.2 -86.5 -3.406
23:23 1021 30.15 850 25.1 16.7 62 51 6.7 44.1 -86.5 -3.406
23:24 1021 30.15 850 25.1 16.7 62 50 6.4 43.6 -86.6 -3.409
23:25 1021 30.15 850 25.1 16.7 62.1 51 6.6 43.8 -86.6 -3.409
23:26 1021 30.15 850 25.1 16.7 62 51 6.6 43.9 -86.6 -3.409
23:27 1021 30.15 850 25.1 16.6 61.9 51 6.5 43.7 -86.6 -3.409
23:28 1021 30.15 850 25.1 16.7 62 51 6.5 43.7 -86.6 -3.409
23:29 1021 30.15 850 25.1 16.7 62 50 6.2 43.2 -86.6 -3.409
23:30 1021 30.15 850 25.1 16.8 62.2 50 6.3 43.3 -86.6 -3.409
23:31 1021 30.15 850 25.1 16.8 62.3 50 6.3 43.4 -86.6 -3.409
23:32 1021 30.15 850 25.1 16.9 62.3 49 6.2 43.2 -86.6 -3.409
23:33 1021 30.15 850 25.1 17 62.5 48 5.9 42.7 -86.6 -3.409
23:34 1021 30.15 850 25.1 17 62.6 48 6 42.8 -86.6 -3.409
23:35 1021 30.15 850 25.1 17.1 62.7 47 5.9 42.7 -86.6 -3.409
23:36 1021 30.15 850 25.1 17.1 62.7 47 5.9 42.7 -86.7 -3.413
23:37 1021 30.15 850 25.1 17.2 62.9 47 5.8 42.5 -86.7 -3.413
23:38 1021 30.15 850 25.1 17.2 63 47 6 42.7 -86.7 -3.413
23:39 1021 30.15 850 25.1 17.1 62.9 48 6.2 43.2 -86.7 -3.413
23:40 1021 30.15 850 25.1 16.9 62.4 50 6.5 43.7 -86.7 -3.413
23:41 1021 30.15 850 25.1 16.6 61.9 51 6.6 43.9 -86.7 -3.413
23:42 1021 30.15 850 25.1 16.4 61.5 51 6.3 43.4 -86.7 -3.413
23:43 1021 30.15 850 25.1 16.3 61.4 51 6.3 43.4 -86.7 -3.413
23:44 1021 30.15 850 25.1 16.4 61.4 51 6.2 43.2 -86.7 -3.413
23:45 1021 30.15 850 25.1 16.4 61.4 51 6.2 43.2 -86.7 -3.413
23:46 1021 30.15 850 25.1 16.4 61.5 51 6.4 43.6 -86.7 -3.413
23:47 1021 30.15 850 25.1 16.3 61.3 52 6.5 43.7 -86.7 -3.413
23:48 1021 30.15 850 25.1 16.2 61.2 52 6.4 43.5 -86.7 -3.413
23:49 1021 30.15 850 25.1 16.2 61.2 51 6.3 43.3 -86.7 -3.413
23:50 1021 30.15 850 25.1 16.2 61.1 52 6.3 43.3 -86.7 -3.413
23:51 1021 30.15 850 25.1 16.2 61.1 52 6.5 43.7 -86.7 -3.413
23:52 1021 30.15 850 25.1 16.1 60.9 54 6.8 44.3 -86.7 -3.413
23:53 1021 30.15 850 25.1 15.9 60.5 55 6.8 44.2 -86.7 -3.413
23:54 1021 30.15 850 25.1 15.8 60.4 51 5.8 42.5 -86.7 -3.413
23:55 1021 30.15 850 25.1 16.2 61.1 51 6 42.8 -86.7 -3.413
23:56 1021 30.15 850 25.1 16.3 61.4 49 5.8 42.5 -86.7 -3.413
23:57 1021 30.15 850 25.1 16.5 61.6 49 6 42.7 -86.7 -3.413
23:58 1020 30.12 850 25.1 16.6 61.9 49 6 42.9 -86.7 -3.413
23:59 1020 30.12 850 25.1 16.6 61.9 50 6.2 43.1 -86.7 -3.413
24:00 1020 30.12 850 25.1 16.6 61.8 50 6.3 43.4 -86.7 -3.413